Time,TemperatureF,DewpointF,PressureIn,WindDirection,WindDirectionDegrees,WindSpeedMPH,WindSpeedGustMPH,Humidity,HourlyPrecipIn,Conditions,Clouds,dailyrainin,SoftwareType,DateUTC
2013-01-26 00:00:00,149.5,99.9,0.00,WNW,301,5.1,5.7,100,0.00,,SKC,0.00,VWS V14.01,2013-01-26 05:00:00,
2013-01-26 00:05:00,149.5,99.9,0.00,NW,305,3.5,7.4,100,0.00,,SKC,0.00,VWS V14.01,2013-01-26 05:05:00,
2013-01-26 00:06:00,149.5,99.9,0.00,NW,323,5.8,6.4,100,0.00,,SKC,0.00,VWS V14.01,2013-01-26 05:06:00,
2013-01-26 00:10:00,149.5,99.9,0.00,NW,307,6.8,6.8,100,0.00,,SKC,0.00,VWS V14.01,2013-01-26 05:10:00,
2013-01-26 00:11:00,149.5,99.9,0.00,NW,308,5.8,5.8,100,0.00,,SKC,0.00,VWS V14.01,2013-01-26 05:11:00,
2013-01-26 00:15:00,149.5,99.9,0.00,NW,308,5.8,7.6,100,0.00,,SKC,0.00,VWS V14.01,2013-01-26 05:15:00,
2013-01-26 00:16:00,149.5,99.9,0.00,NNW,336,2.8,6.4,100,0.00,,SKC,0.00,VWS V14.01,2013-01-26 05:16:00,
2013-01-26 00:20:00,149.5,99.9,0.00,NW,305,3.5,3.5,100,0.00,,SKC,0.00,VWS V14.01,2013-01-26 05:20:00,
2013-01-26 00:21:00,149.5,99.9,0.00,WNW,288,5.2,5.2,100,0.00,,SKC,0.00,VWS V14.01,2013-01-26 05:21:00,
2013-01-26 00:25:00,149.5,99.9,0.00,NW,312,2.8,5.4,100,0.00,,SKC,0.00,VWS V14.01,2013-01-26 05:25:00,
2013-01-26 00:26:00,149.5,99.9,0.00,WNW,298,2.7,5.3,100,0.00,,SKC,0.00,VWS V14.01,2013-01-26 05:26:00,
2013-01-26 00:30:00,149.5,99.9,0.00,NW,314,1.6,4.5,100,0.00,,SKC,0.00,VWS V14.01,2013-01-26 05:30:00,
2013-01-26 00:31:00,149.5,99.9,0.00,WNW,298,3.0,4.0,100,0.00,,SKC,0.00,VWS V14.01,2013-01-26 05:31:00,
2013-01-26 00:35:00,149.5,99.9,0.00,West,270,4.8,5.7,100,0.00,,SKC,0.00,VWS V14.01,2013-01-26 05:35:00,
2013-01-26 00:36:00,149.5,99.9,0.00,NW,311,3.1,6.1,100,0.00,,SKC,0.00,VWS V14.01,2013-01-26 05:36:00,
2013-01-26 00:40:00,149.5,99.9,0.00,NW,321,3.6,3.6,100,0.00,,SKC,0.00,VWS V14.01,2013-01-26 05:40:00,
2013-01-26 00:41:00,149.5,99.9,0.00,NW,318,4.0,4.3,100,0.00,,SKC,0.00,VWS V14.01,2013-01-26 05:41:00,
2013-01-26 00:45:00,149.5,99.9,0.00,NNW,332,2.1,6.7,100,0.00,,SKC,0.00,VWS V14.01,2013-01-26 05:45:00,
2013-01-26 00:46:00,149.5,99.9,0.00,WNW,285,1.6,5.2,100,0.00,,SKC,0.00,VWS V14.01,2013-01-26 05:46:00,
2013-01-26 00:50:00,149.5,99.9,0.00,WNW,283,1.4,1.8,100,0.00,,SKC,0.00,VWS V14.01,2013-01-26 05:50:00,
2013-01-26 00:51:00,149.5,99.9,0.00,West,269,0.6,1.8,100,0.00,,SKC,0.00,VWS V14.01,2013-01-26 05:51:00,
2013-01-26 00:56:00,149.5,99.9,0.00,WNW,294,2.2,2.7,100,0.00,,SKC,0.00,VWS V14.01,2013-01-26 05:56:00,
2013-01-26 00:57:00,149.5,99.9,0.00,West,278,2.8,5.1,100,0.00,,SKC,0.00,VWS V14.01,2013-01-26 05:57:00,
2013-01-26 01:01:00,149.5,99.9,0.00,West,276,2.5,4.2,100,0.00,,SKC,0.00,VWS V14.01,2013-01-26 06:01:00,
2013-01-26 01:02:00,149.5,99.9,0.00,West,278,3.2,3.7,100,0.00,,SKC,0.00,VWS V14.01,2013-01-26 06:02:00,
2013-01-26 01:06:00,149.5,99.9,0.00,West,273,3.1,5.1,100,0.00,,SKC,0.00,VWS V14.01,2013-01-26 06:06:00,
2013-01-26 01:07:00,149.5,99.9,0.00,WSW,253,4.3,5.5,100,0.00,,SKC,0.00,VWS V14.01,2013-01-26 06:07:00,
2013-01-26 01:11:00,149.5,99.9,0.00,WNW,290,3.7,6.0,100,0.00,,SKC,0.00,VWS V14.01,2013-01-26 06:11:00,
2013-01-26 01:12:00,149.5,99.9,0.00,West,280,1.0,3.5,100,0.00,,SKC,0.00,VWS V14.01,2013-01-26 06:12:00,
2013-01-26 01:16:00,149.5,99.9,0.00,NW,308,3.7,7.0,100,0.00,,SKC,0.00,VWS V14.01,2013-01-26 06:16:00,
2013-01-26 01:17:00,149.5,99.9,0.00,NW,308,0.4,4.0,100,0.00,,SKC,0.00,VWS V14.01,2013-01-26 06:17:00,
2013-01-26 01:21:00,149.5,99.9,0.00,WNW,291,3.3,6.8,100,0.00,,SKC,0.00,VWS V14.01,2013-01-26 06:21:00,
2013-01-26 01:22:00,149.5,99.9,0.00,West,262,0.0,3.2,100,0.00,,SKC,0.00,VWS V14.01,2013-01-26 06:22:00,
2013-01-26 01:26:00,149.5,99.9,0.00,West,280,2.2,2.2,100,0.00,,SKC,0.00,VWS V14.01,2013-01-26 06:26:00,
2013-01-26 01:27:00,149.5,99.9,0.00,West,262,0.0,2.8,100,0.00,,SKC,0.00,VWS V14.01,2013-01-26 06:27:00,
2013-01-26 01:31:00,149.5,99.9,0.00,West,273,1.2,3.2,100,0.00,,SKC,0.00,VWS V14.01,2013-01-26 06:31:00,
2013-01-26 01:32:00,149.5,99.9,0.00,West,273,0.0,3.2,100,0.00,,SKC,0.00,VWS V14.01,2013-01-26 06:32:00,
2013-01-26 01:36:00,149.5,99.9,0.00,WNW,295,4.1,5.4,100,0.00,,SKC,0.00,VWS V14.01,2013-01-26 06:36:00,
2013-01-26 01:37:00,149.5,99.9,0.00,WNW,290,2.5,5.4,100,0.00,,SKC,0.00,VWS V14.01,2013-01-26 06:37:00,
2013-01-26 01:42:00,149.5,99.9,0.00,WNW,285,4.4,6.0,100,0.00,,SKC,0.00,VWS V14.01,2013-01-26 06:42:00,
2013-01-26 01:43:00,149.5,99.9,0.00,WNW,285,2.2,3.6,100,0.00,,SKC,0.00,VWS V14.01,2013-01-26 06:43:00,
2013-01-26 01:47:00,149.5,99.9,0.00,West,281,2.1,2.4,100,0.00,,SKC,0.00,VWS V14.01,2013-01-26 06:47:00,
2013-01-26 01:48:00,149.5,99.9,0.00,WNW,283,2.7,5.6,100,0.00,,SKC,0.00,VWS V14.01,2013-01-26 06:48:00,
2013-01-26 01:52:00,149.5,99.9,0.00,West,281,2.9,5.2,100,0.00,,SKC,0.00,VWS V14.01,2013-01-26 06:52:00,
2013-01-26 01:53:00,149.5,99.9,0.00,West,276,4.2,4.7,100,0.00,,SKC,0.00,VWS V14.01,2013-01-26 06:53:00,
2013-01-26 01:57:00,149.5,99.9,0.00,West,271,1.9,6.5,100,0.00,,SKC,0.00,VWS V14.01,2013-01-26 06:57:00,
2013-01-26 01:58:00,149.5,99.9,0.00,West,276,0.0,0.0,100,0.00,,SKC,0.00,VWS V14.01,2013-01-26 06:58:00,
2013-01-26 02:02:00,149.5,99.9,0.00,West,280,2.9,2.9,100,0.00,,SKC,0.00,VWS V14.01,2013-01-26 07:02:00,
2013-01-26 02:03:00,149.5,99.9,0.00,West,280,0.7,4.3,100,0.00,,SKC,0.00,VWS V14.01,2013-01-26 07:03:00,
2013-01-26 02:07:00,149.5,99.9,0.00,WNW,287,3.9,6.6,100,0.00,,SKC,0.00,VWS V14.01,2013-01-26 07:07:00,
2013-01-26 02:08:00,149.5,99.9,0.00,West,270,5.2,5.2,100,0.00,,SKC,0.00,VWS V14.01,2013-01-26 07:08:00,
2013-01-26 02:12:00,149.5,99.9,0.00,West,270,2.5,4.8,100,0.00,,SKC,0.00,VWS V14.01,2013-01-26 07:12:00,
2013-01-26 02:13:00,149.5,99.9,0.00,West,276,7.0,7.0,100,0.00,,SKC,0.00,VWS V14.01,2013-01-26 07:13:00,
2013-01-26 02:14:00,149.5,99.9,0.00,West,270,2.4,4.2,100,0.00,,SKC,0.00,VWS V14.01,2013-01-26 07:14:00,
2013-01-26 02:17:00,149.5,99.9,0.00,West,278,5.6,5.7,100,0.00,,SKC,0.00,VWS V14.01,2013-01-26 07:17:00,
2013-01-26 02:18:00,149.5,99.9,0.00,West,276,5.8,8.4,100,0.00,,SKC,0.00,VWS V14.01,2013-01-26 07:18:00,
2013-01-26 02:19:00,149.5,99.9,0.00,WSW,246,4.5,5.9,100,0.00,,SKC,0.00,VWS V14.01,2013-01-26 07:19:00,
2013-01-26 02:22:00,149.5,99.9,0.00,NW,309,0.9,4.8,100,0.00,,SKC,0.00,VWS V14.01,2013-01-26 07:22:00,
2013-01-26 02:23:00,149.5,99.9,0.00,WNW,292,2.5,5.8,100,0.00,,SKC,0.00,VWS V14.01,2013-01-26 07:23:00,
2013-01-26 02:24:00,149.5,99.9,0.00,West,260,0.9,4.9,100,0.00,,SKC,0.00,VWS V14.01,2013-01-26 07:24:00,
2013-01-26 02:27:00,149.5,99.9,0.00,NW,307,6.6,7.3,100,0.00,,SKC,0.00,VWS V14.01,2013-01-26 07:27:00,
2013-01-26 02:28:00,149.5,99.9,0.00,WNW,302,5.4,7.5,100,0.00,,SKC,0.00,VWS V14.01,2013-01-26 07:28:00,
2013-01-26 02:29:00,149.5,99.9,0.00,WNW,298,1.8,2.8,100,0.00,,SKC,0.00,VWS V14.01,2013-01-26 07:29:00,
2013-01-26 02:32:00,149.5,99.9,0.00,NW,305,4.0,4.8,100,0.00,,SKC,0.00,VWS V14.01,2013-01-26 07:32:00,
2013-01-26 02:33:00,149.5,99.9,0.00,West,263,2.9,5.2,100,0.00,,SKC,0.00,VWS V14.01,2013-01-26 07:33:00,
2013-01-26 02:34:00,149.5,99.9,0.00,WNW,290,2.1,3.4,100,0.00,,SKC,0.00,VWS V14.01,2013-01-26 07:34:00,
2013-01-26 02:37:00,149.5,99.9,0.00,WNW,294,1.0,1.3,100,0.00,,SKC,0.00,VWS V14.01,2013-01-26 07:37:00,
2013-01-26 02:38:00,149.5,99.9,0.00,West,281,1.1,4.3,100,0.00,,SKC,0.00,VWS V14.01,2013-01-26 07:38:00,
2013-01-26 02:39:00,149.5,99.9,0.00,West,270,1.0,3.9,100,0.00,,SKC,0.00,VWS V14.01,2013-01-26 07:39:00,
2013-01-26 02:42:00,149.5,99.9,0.00,WNW,297,0.0,2.5,100,0.00,,SKC,0.00,VWS V14.01,2013-01-26 07:42:00,
2013-01-26 02:43:00,149.5,99.9,0.00,WNW,297,0.0,0.0,100,0.00,,SKC,0.00,VWS V14.01,2013-01-26 07:43:00,
2013-01-26 02:44:00,149.5,99.9,0.00,West,274,4.0,7.0,100,0.00,,SKC,0.00,VWS V14.01,2013-01-26 07:44:00,
2013-01-26 02:47:00,149.5,99.9,0.00,WNW,295,1.2,8.8,100,0.00,,SKC,0.00,VWS V14.01,2013-01-26 07:47:00,
2013-01-26 02:48:00,149.5,99.9,0.00,WNW,295,2.6,3.4,100,0.00,,SKC,0.00,VWS V14.01,2013-01-26 07:48:00,
2013-01-26 02:49:00,149.5,99.9,0.00,West,277,6.0,7.5,100,0.00,,SKC,0.00,VWS V14.01,2013-01-26 07:49:00,
2013-01-26 02:52:00,149.5,99.9,0.00,WNW,285,0.0,0.0,100,0.00,,SKC,0.00,VWS V14.01,2013-01-26 07:52:00,
2013-01-26 02:53:00,149.5,99.9,0.00,WNW,302,5.2,5.9,100,0.00,,SKC,0.00,VWS V14.01,2013-01-26 07:53:00,
2013-01-26 02:54:00,149.5,99.9,0.00,NW,308,5.7,5.7,100,0.00,,SKC,0.00,VWS V14.01,2013-01-26 07:54:00,
2013-01-26 02:57:00,149.5,99.9,0.00,WNW,284,0.0,0.0,100,0.00,,SKC,0.00,VWS V14.01,2013-01-26 07:57:00,
2013-01-26 02:58:00,149.5,99.9,0.00,WNW,291,3.6,6.5,100,0.00,,SKC,0.00,VWS V14.01,2013-01-26 07:58:00,
2013-01-26 02:59:00,149.5,99.9,0.00,WNW,294,6.0,7.8,100,0.00,,SKC,0.00,VWS V14.01,2013-01-26 07:59:00,
2013-01-26 03:02:00,149.5,99.9,0.00,WNW,290,3.0,3.7,100,0.00,,SKC,0.00,VWS V14.01,2013-01-26 08:02:00,
2013-01-26 03:03:00,149.5,99.9,0.00,West,281,1.1,1.1,100,0.00,,SKC,0.00,VWS V14.01,2013-01-26 08:03:00,
2013-01-26 03:04:00,149.5,99.9,0.00,NW,307,3.7,3.7,100,0.00,,SKC,0.00,VWS V14.01,2013-01-26 08:04:00,
2013-01-26 03:08:00,149.5,99.9,0.00,WNW,290,2.3,5.5,100,0.00,,SKC,0.00,VWS V14.01,2013-01-26 08:08:00,
2013-01-26 03:09:00,149.5,99.9,0.00,West,281,2.7,3.7,100,0.00,,SKC,0.00,VWS V14.01,2013-01-26 08:09:00,
2013-01-26 03:13:00,149.5,99.9,0.00,West,262,3.5,6.0,100,0.00,,SKC,0.00,VWS V14.01,2013-01-26 08:13:00,
2013-01-26 03:14:00,149.5,99.9,0.00,West,270,2.1,2.3,100,0.00,,SKC,0.00,VWS V14.01,2013-01-26 08:14:00,
2013-01-26 03:18:00,149.5,99.9,0.00,West,267,3.2,5.7,100,0.00,,SKC,0.00,VWS V14.01,2013-01-26 08:18:00,
2013-01-26 03:19:00,149.5,99.9,0.00,NW,318,3.9,6.8,100,0.00,,SKC,0.00,VWS V14.01,2013-01-26 08:19:00,
2013-01-26 03:23:00,149.5,99.9,0.00,West,269,1.1,2.9,100,0.00,,SKC,0.00,VWS V14.01,2013-01-26 08:23:00,
2013-01-26 03:24:00,149.5,99.9,0.00,WSW,250,0.0,3.0,100,0.00,,SKC,0.00,VWS V14.01,2013-01-26 08:24:00,
2013-01-26 03:28:00,149.5,99.9,0.00,NW,305,3.7,6.5,100,0.00,,SKC,0.00,VWS V14.01,2013-01-26 08:28:00,
2013-01-26 03:29:00,149.5,99.9,0.00,West,266,2.3,3.4,100,0.00,,SKC,0.00,VWS V14.01,2013-01-26 08:29:00,
2013-01-26 03:34:00,149.5,99.9,0.00,West,281,6.3,6.3,100,0.00,,SKC,0.00,VWS V14.01,2013-01-26 08:34:00,
2013-01-26 03:39:00,149.5,99.9,0.00,WNW,300,4.0,6.7,100,0.00,,SKC,0.00,VWS V14.01,2013-01-26 08:39:00,
2013-01-26 03:40:00,149.5,99.9,0.00,WNW,290,5.5,6.0,100,0.00,,SKC,0.00,VWS V14.01,2013-01-26 08:40:00,
2013-01-26 03:44:00,149.5,99.9,0.00,WNW,297,4.5,5.3,100,0.00,,SKC,0.00,VWS V14.01,2013-01-26 08:44:00,
2013-01-26 03:45:00,149.5,99.9,0.00,NW,305,2.1,3.3,100,0.00,,SKC,0.00,VWS V14.01,2013-01-26 08:45:00,
2013-01-26 03:49:00,149.5,99.9,0.00,WNW,295,0.0,4.4,100,0.00,,SKC,0.00,VWS V14.01,2013-01-26 08:49:00,
2013-01-26 03:50:00,149.5,99.9,0.00,WNW,295,0.0,0.0,100,0.00,,SKC,0.00,VWS V14.01,2013-01-26 08:50:00,
2013-01-26 03:54:00,149.5,99.9,0.00,WNW,285,3.4,3.9,100,0.00,,SKC,0.00,VWS V14.01,2013-01-26 08:54:00,
2013-01-26 03:55:00,149.5,99.9,0.00,NW,311,5.7,5.7,100,0.00,,SKC,0.00,VWS V14.01,2013-01-26 08:55:00,
2013-01-26 03:59:00,149.5,99.9,0.00,NW,314,5.4,6.5,100,0.00,,SKC,0.00,VWS V14.01,2013-01-26 08:59:00,
2013-01-26 04:00:00,149.5,99.9,0.00,NW,314,3.4,5.4,100,0.00,,SKC,0.00,VWS V14.01,2013-01-26 09:00:00,
2013-01-26 04:04:00,149.5,99.9,0.00,NW,308,2.1,2.4,100,0.00,,SKC,0.00,VWS V14.01,2013-01-26 09:04:00,
2013-01-26 04:05:00,149.5,99.9,0.00,WNW,298,0.9,2.4,100,0.00,,SKC,0.00,VWS V14.01,2013-01-26 09:05:00,
2013-01-26 04:09:00,149.5,99.9,0.00,NW,309,1.7,2.8,100,0.00,,SKC,0.00,VWS V14.01,2013-01-26 09:09:00,
2013-01-26 04:10:00,149.5,99.9,0.00,NW,304,2.8,3.0,100,0.00,,SKC,0.00,VWS V14.01,2013-01-26 09:10:00,
2013-01-26 04:14:00,149.5,99.9,0.00,NW,311,1.5,2.5,100,0.00,,SKC,0.00,VWS V14.01,2013-01-26 09:14:00,
2013-01-26 04:15:00,149.5,99.9,0.00,NW,304,3.9,4.5,100,0.00,,SKC,0.00,VWS V14.01,2013-01-26 09:15:00,
2013-01-26 04:19:00,149.5,99.9,0.00,WNW,284,0.0,0.0,100,0.00,,SKC,0.00,VWS V14.01,2013-01-26 09:19:00,
2013-01-26 04:20:00,149.5,99.9,0.00,WNW,284,0.0,0.0,100,0.00,,SKC,0.00,VWS V14.01,2013-01-26 09:20:00,
2013-01-26 04:24:00,149.5,99.9,0.00,NW,316,3.2,3.2,100,0.00,,SKC,0.00,VWS V14.01,2013-01-26 09:24:00,
2013-01-26 04:25:00,149.5,99.9,0.00,NW,321,1.6,4.3,100,0.00,,SKC,0.00,VWS V14.01,2013-01-26 09:25:00,
2013-01-26 04:29:00,149.5,99.9,0.00,NW,321,0.0,0.9,100,0.00,,SKC,0.00,VWS V14.01,2013-01-26 09:29:00,
2013-01-26 04:30:00,149.5,99.9,0.00,NW,318,1.4,1.7,100,0.00,,SKC,0.00,VWS V14.01,2013-01-26 09:30:00,
2013-01-26 04:34:00,149.5,99.9,0.00,NW,322,0.0,0.0,100,0.00,,SKC,0.00,VWS V14.01,2013-01-26 09:34:00,
2013-01-26 04:35:00,149.5,99.9,0.00,NW,322,0.0,0.0,100,0.00,,SKC,0.00,VWS V14.01,2013-01-26 09:35:00,
2013-01-26 04:39:00,149.5,99.9,0.00,NW,322,0.0,0.0,100,0.00,,SKC,0.00,VWS V14.01,2013-01-26 09:39:00,
2013-01-26 04:40:00,149.5,99.9,0.00,NW,322,0.0,0.0,100,0.00,,SKC,0.00,VWS V14.01,2013-01-26 09:40:00,
2013-01-26 04:44:00,149.5,99.9,0.00,NW,318,0.0,0.0,100,0.00,,SKC,0.00,VWS V14.01,2013-01-26 09:44:00,
2013-01-26 04:45:00,149.5,99.9,0.00,NW,318,0.0,0.0,100,0.00,,SKC,0.00,VWS V14.01,2013-01-26 09:45:00,
2013-01-26 04:49:00,149.5,99.9,0.00,NW,318,0.0,0.0,100,0.00,,SKC,0.00,VWS V14.01,2013-01-26 09:49:00,
2013-01-26 04:50:00,149.5,99.9,0.00,NW,318,0.0,0.0,100,0.00,,SKC,0.00,VWS V14.01,2013-01-26 09:50:00,
2013-01-26 04:51:00,149.5,99.9,0.00,NW,318,0.0,0.0,100,0.00,,SKC,0.00,VWS V14.01,2013-01-26 09:51:00,
2013-01-26 04:55:00,149.5,99.9,0.00,NW,318,0.0,0.0,100,0.00,,SKC,0.00,VWS V14.01,2013-01-26 09:55:00,
2013-01-26 04:56:00,149.5,99.9,0.00,NW,318,0.0,0.0,100,0.00,,SKC,0.00,VWS V14.01,2013-01-26 09:56:00,
2013-01-26 05:00:00,149.5,99.9,0.00,NW,326,0.0,0.0,100,0.00,,SKC,0.00,VWS V14.01,2013-01-26 10:00:00,
2013-01-26 05:01:00,149.5,99.9,0.00,NW,326,0.0,0.0,100,0.00,,SKC,0.00,VWS V14.01,2013-01-26 10:01:00,
2013-01-26 05:05:00,149.5,99.9,0.00,NW,326,0.0,0.0,100,0.00,,SKC,0.00,VWS V14.01,2013-01-26 10:05:00,
2013-01-26 05:06:00,149.5,99.9,0.00,NW,326,0.0,0.0,100,0.00,,SKC,0.00,VWS V14.01,2013-01-26 10:06:00,
2013-01-26 05:10:00,149.5,99.9,0.00,NW,326,0.0,0.0,100,0.00,,SKC,0.00,VWS V14.01,2013-01-26 10:10:00,
2013-01-26 05:11:00,149.5,99.9,0.00,NW,326,0.0,0.0,100,0.00,,SKC,0.00,VWS V14.01,2013-01-26 10:11:00,
2013-01-26 05:15:00,149.5,99.9,0.00,NW,326,0.0,0.0,100,0.00,,SKC,0.00,VWS V14.01,2013-01-26 10:15:00,
2013-01-26 05:16:00,149.5,99.9,0.00,NW,326,0.0,0.0,100,0.00,,SKC,0.00,VWS V14.01,2013-01-26 10:16:00,
2013-01-26 05:20:00,149.5,99.9,0.00,NW,326,0.0,0.0,100,0.00,,SKC,0.00,VWS V14.01,2013-01-26 10:20:00,
2013-01-26 05:21:00,149.5,99.9,0.00,NW,326,0.0,0.0,100,0.00,,SKC,0.00,VWS V14.01,2013-01-26 10:21:00,
2013-01-26 05:25:00,149.5,99.9,0.00,NW,326,0.0,0.0,100,0.00,,SKC,0.00,VWS V14.01,2013-01-26 10:25:00,
2013-01-26 05:26:00,149.5,99.9,0.00,NW,326,0.0,0.0,100,0.00,,SKC,0.00,VWS V14.01,2013-01-26 10:26:00,
2013-01-26 05:30:00,149.5,99.9,0.00,NW,326,0.0,0.0,100,0.00,,SKC,0.00,VWS V14.01,2013-01-26 10:30:00,
2013-01-26 05:31:00,149.5,99.9,0.00,NW,326,0.0,0.0,100,0.00,,SKC,0.00,VWS V14.01,2013-01-26 10:31:00,
2013-01-26 05:36:00,149.5,99.9,0.00,NW,326,0.0,0.0,100,0.00,,SKC,0.00,VWS V14.01,2013-01-26 10:36:00,
2013-01-26 05:41:00,149.5,99.9,0.00,NW,326,0.0,0.0,100,0.00,,SKC,0.00,VWS V14.01,2013-01-26 10:41:00,
2013-01-26 05:46:00,149.5,99.9,0.00,NW,326,0.0,0.0,100,0.00,,SKC,0.00,VWS V14.01,2013-01-26 10:46:00,
2013-01-26 05:51:00,149.5,99.9,0.00,NW,326,0.0,0.0,100,0.00,,SKC,0.00,VWS V14.01,2013-01-26 10:51:00,
2013-01-26 05:52:00,149.5,99.9,0.00,NW,326,0.0,0.0,100,0.00,,SKC,0.00,VWS V14.01,2013-01-26 10:52:00,
2013-01-26 05:56:00,149.5,99.9,0.00,NW,326,0.0,0.0,100,0.00,,SKC,0.00,VWS V14.01,2013-01-26 10:56:00,
2013-01-26 05:57:00,149.5,99.9,0.00,NW,326,0.0,0.0,100,0.00,,SKC,0.00,VWS V14.01,2013-01-26 10:57:00,
2013-01-26 06:01:00,149.5,99.9,0.00,NW,326,0.0,0.0,100,0.00,,SKC,0.00,VWS V14.01,2013-01-26 11:01:00,
2013-01-26 06:02:00,149.5,99.9,0.00,NW,326,0.0,0.0,100,0.00,,SKC,0.00,VWS V14.01,2013-01-26 11:02:00,
2013-01-26 06:06:00,149.5,99.9,0.00,NW,326,0.0,0.0,100,0.00,,SKC,0.00,VWS V14.01,2013-01-26 11:06:00,
2013-01-26 06:07:00,149.5,99.9,0.00,NW,326,0.0,0.0,100,0.00,,SKC,0.00,VWS V14.01,2013-01-26 11:07:00,
2013-01-26 06:11:00,149.5,99.9,0.00,NW,326,0.0,0.0,100,0.00,,SKC,0.00,VWS V14.01,2013-01-26 11:11:00,
2013-01-26 06:12:00,149.5,99.9,0.00,NW,326,0.0,0.0,100,0.00,,SKC,0.00,VWS V14.01,2013-01-26 11:12:00,
2013-01-26 06:16:00,149.5,99.9,0.00,NW,326,0.0,0.0,100,0.00,,SKC,0.00,VWS V14.01,2013-01-26 11:16:00,
2013-01-26 06:17:00,149.5,99.9,0.00,NW,326,0.0,0.0,100,0.00,,SKC,0.00,VWS V14.01,2013-01-26 11:17:00,
2013-01-26 06:21:00,149.5,99.9,0.00,NW,326,0.0,0.0,100,0.00,,SKC,0.00,VWS V14.01,2013-01-26 11:21:00,
2013-01-26 06:22:00,149.5,99.9,0.00,NW,326,0.0,0.0,100,0.00,,SKC,0.00,VWS V14.01,2013-01-26 11:22:00,
2013-01-26 06:26:00,149.5,99.9,0.00,NW,326,0.0,0.0,100,0.00,,SKC,0.00,VWS V14.01,2013-01-26 11:26:00,
2013-01-26 06:27:00,149.5,99.9,0.00,NW,326,0.0,0.0,100,0.00,,SKC,0.00,VWS V14.01,2013-01-26 11:27:00,
2013-01-26 06:31:00,149.5,99.9,0.00,NW,326,0.0,0.0,100,0.00,,SKC,0.00,VWS V14.01,2013-01-26 11:31:00,
2013-01-26 06:32:00,149.5,99.9,0.00,NW,326,0.0,0.0,100,0.00,,SKC,0.00,VWS V14.01,2013-01-26 11:32:00,
2013-01-26 06:36:00,149.5,99.9,0.00,NW,326,0.0,0.0,100,0.00,,SKC,0.00,VWS V14.01,2013-01-26 11:36:00,
2013-01-26 06:37:00,149.5,99.9,0.00,NW,326,0.0,0.0,100,0.00,,SKC,0.00,VWS V14.01,2013-01-26 11:37:00,
2013-01-26 06:38:00,149.5,99.9,0.00,NW,326,0.0,0.0,100,0.00,,SKC,0.00,VWS V14.01,2013-01-26 11:38:00,
2013-01-26 06:41:00,149.5,99.9,0.00,NW,326,0.0,0.0,100,0.00,,SKC,0.00,VWS V14.01,2013-01-26 11:41:00,
2013-01-26 06:42:00,149.5,99.9,0.00,NW,326,0.0,0.0,100,0.00,,SKC,0.00,VWS V14.01,2013-01-26 11:42:00,
2013-01-26 06:43:00,149.5,99.9,0.00,NW,326,0.0,0.0,100,0.00,,SKC,0.00,VWS V14.01,2013-01-26 11:43:00,
2013-01-26 06:46:00,149.5,99.9,0.00,NW,326,0.0,0.0,100,0.00,,SKC,0.00,VWS V14.01,2013-01-26 11:46:00,
2013-01-26 06:47:00,149.5,99.9,0.00,NW,326,0.0,0.0,100,0.00,,SKC,0.00,VWS V14.01,2013-01-26 11:47:00,
2013-01-26 06:48:00,149.5,99.9,0.00,NW,326,0.0,0.0,100,0.00,,SKC,0.00,VWS V14.01,2013-01-26 11:48:00,
2013-01-26 06:52:00,149.5,99.9,0.00,NW,326,0.0,0.0,100,0.00,,SKC,0.00,VWS V14.01,2013-01-26 11:52:00,
2013-01-26 06:53:00,149.5,99.9,0.00,NW,326,0.0,0.0,100,0.00,,SKC,0.00,VWS V14.01,2013-01-26 11:53:00,
2013-01-26 06:57:00,149.5,99.9,0.00,NW,326,0.0,0.0,100,0.00,,SKC,0.00,VWS V14.01,2013-01-26 11:57:00,
2013-01-26 06:58:00,149.5,99.9,0.00,NW,326,0.0,0.0,100,0.00,,SKC,0.00,VWS V14.01,2013-01-26 11:58:00,
2013-01-26 07:02:00,149.5,99.9,0.00,NW,326,0.0,0.0,100,0.00,,SKC,0.00,VWS V14.01,2013-01-26 12:02:00,
2013-01-26 07:04:00,149.5,99.9,0.00,NW,326,0.0,0.0,100,0.00,,SKC,0.00,VWS V14.01,2013-01-26 12:04:00,
2013-01-26 07:07:00,149.5,99.9,0.00,NW,326,0.0,0.0,100,0.00,,SKC,0.00,VWS V14.01,2013-01-26 12:07:00,
2013-01-26 07:08:00,149.5,99.9,0.00,NW,326,0.0,0.0,100,0.00,,SKC,0.00,VWS V14.01,2013-01-26 12:08:00,
2013-01-26 07:09:00,149.5,99.9,0.00,NW,326,0.0,0.0,100,0.00,,SKC,0.00,VWS V14.01,2013-01-26 12:09:00,
2013-01-26 07:12:00,149.5,99.9,0.00,NW,326,0.0,0.0,100,0.00,,SKC,0.00,VWS V14.01,2013-01-26 12:12:00,
2013-01-26 07:13:00,149.5,99.9,0.00,NW,326,0.0,0.0,100,0.00,,SKC,0.00,VWS V14.01,2013-01-26 12:13:00,
2013-01-26 07:14:00,149.5,99.9,0.00,NW,326,0.0,0.0,100,0.00,,SKC,0.00,VWS V14.01,2013-01-26 12:14:00,
2013-01-26 07:17:00,149.5,99.9,0.00,NW,326,0.0,0.0,100,0.00,,SKC,0.00,VWS V14.01,2013-01-26 12:17:00,
2013-01-26 07:18:00,149.5,99.9,0.00,NW,326,0.0,0.0,100,0.00,,SKC,0.00,VWS V14.01,2013-01-26 12:18:00,
2013-01-26 07:19:00,149.5,99.9,0.00,NW,326,0.0,0.0,100,0.00,,SKC,0.00,VWS V14.01,2013-01-26 12:19:00,
2013-01-26 07:22:00,149.5,99.9,0.00,NW,326,0.0,0.0,100,0.00,,SKC,0.00,VWS V14.01,2013-01-26 12:22:00,
2013-01-26 07:23:00,149.5,99.9,0.00,NW,326,0.0,0.0,100,0.00,,SKC,0.00,VWS V14.01,2013-01-26 12:23:00,
2013-01-26 07:24:00,149.5,99.9,0.00,NW,326,0.0,0.0,100,0.00,,SKC,0.00,VWS V14.01,2013-01-26 12:24:00,
2013-01-26 07:27:00,149.5,99.9,0.00,NW,326,0.0,0.0,100,0.00,,SKC,0.00,VWS V14.01,2013-01-26 12:27:00,
2013-01-26 07:28:00,149.5,99.9,0.00,NW,326,0.0,0.0,100,0.00,,SKC,0.00,VWS V14.01,2013-01-26 12:28:00,
2013-01-26 07:29:00,149.5,99.9,0.00,NW,326,0.0,0.0,100,0.00,,SKC,0.00,VWS V14.01,2013-01-26 12:29:00,
2013-01-26 07:32:00,149.5,99.9,0.00,NW,326,0.0,0.0,100,0.00,,SKC,0.00,VWS V14.01,2013-01-26 12:32:00,
2013-01-26 07:33:00,149.5,99.9,0.00,NW,326,0.0,0.0,100,0.00,,SKC,0.00,VWS V14.01,2013-01-26 12:33:00,
2013-01-26 07:34:00,149.5,99.9,0.00,NW,326,0.0,0.0,100,0.00,,SKC,0.00,VWS V14.01,2013-01-26 12:34:00,
2013-01-26 07:38:00,149.5,99.9,0.00,NW,326,0.0,0.0,100,0.00,,SKC,0.00,VWS V14.01,2013-01-26 12:38:00,
2013-01-26 07:39:00,149.5,99.9,0.00,NW,326,0.0,0.0,100,0.00,,SKC,0.00,VWS V14.01,2013-01-26 12:39:00,
2013-01-26 07:43:00,149.5,99.9,0.00,NW,326,0.0,0.0,100,0.00,,SKC,0.00,VWS V14.01,2013-01-26 12:43:00,
2013-01-26 07:44:00,149.5,99.9,0.00,NW,326,0.0,0.0,100,0.00,,SKC,0.00,VWS V14.01,2013-01-26 12:44:00,
2013-01-26 07:48:00,149.5,99.9,0.00,NW,326,0.0,0.0,100,0.00,,SKC,0.00,VWS V14.01,2013-01-26 12:48:00,
2013-01-26 07:49:00,149.5,99.9,0.00,NW,326,0.0,0.0,100,0.00,,SKC,0.00,VWS V14.01,2013-01-26 12:49:00,
2013-01-26 07:53:00,149.5,99.9,0.00,NW,326,0.0,0.0,100,0.00,,SKC,0.00,VWS V14.01,2013-01-26 12:53:00,
2013-01-26 07:54:00,149.5,99.9,0.00,NW,326,0.0,0.0,100,0.00,,SKC,0.00,VWS V14.01,2013-01-26 12:54:00,
2013-01-26 07:58:00,149.5,99.9,0.00,NW,326,0.0,0.0,100,0.00,,SKC,0.00,VWS V14.01,2013-01-26 12:58:00,
2013-01-26 07:59:00,149.5,99.9,0.00,NW,326,0.0,0.0,100,0.00,,SKC,0.00,VWS V14.01,2013-01-26 12:59:00,
2013-01-26 08:03:00,149.5,99.9,0.00,NW,326,0.0,0.0,100,0.00,,SKC,0.00,VWS V14.01,2013-01-26 13:03:00,
2013-01-26 08:04:00,149.5,99.9,0.00,NW,326,0.0,0.0,100,0.00,,SKC,0.00,VWS V14.01,2013-01-26 13:04:00,
2013-01-26 08:08:00,149.5,99.9,0.00,NW,326,0.0,0.0,100,0.00,,SKC,0.00,VWS V14.01,2013-01-26 13:08:00,
2013-01-26 08:09:00,149.5,99.9,0.00,NW,326,0.0,0.0,100,0.00,,SKC,0.00,VWS V14.01,2013-01-26 13:09:00,
2013-01-26 08:10:00,149.5,99.9,0.00,NW,326,0.0,0.0,100,0.00,,SKC,0.00,VWS V14.01,2013-01-26 13:10:00,
2013-01-26 08:13:00,149.5,99.9,0.00,NW,326,0.0,0.0,100,0.00,,SKC,0.00,VWS V14.01,2013-01-26 13:13:00,
2013-01-26 08:14:00,149.5,99.9,0.00,NW,326,0.0,0.0,100,0.00,,SKC,0.00,VWS V14.01,2013-01-26 13:14:00,
2013-01-26 08:15:00,149.5,99.9,0.00,NW,326,0.0,0.0,100,0.00,,SKC,0.00,VWS V14.01,2013-01-26 13:15:00,
2013-01-26 08:18:00,149.5,99.9,0.00,NW,326,0.0,0.0,100,0.00,,SKC,0.00,VWS V14.01,2013-01-26 13:18:00,
2013-01-26 08:19:00,149.5,99.9,0.00,NW,326,0.0,0.0,100,0.00,,SKC,0.00,VWS V14.01,2013-01-26 13:19:00,
2013-01-26 08:20:00,149.5,99.9,0.00,NW,326,0.0,0.0,100,0.00,,SKC,0.00,VWS V14.01,2013-01-26 13:20:00,
2013-01-26 08:23:00,149.5,99.9,0.00,NW,326,0.0,0.0,100,0.00,,SKC,0.00,VWS V14.01,2013-01-26 13:23:00,
2013-01-26 08:25:00,149.5,99.9,0.00,NW,326,0.0,0.0,100,0.00,,SKC,0.00,VWS V14.01,2013-01-26 13:25:00,
2013-01-26 08:28:00,149.5,99.9,0.00,NW,326,0.0,0.0,100,0.00,,SKC,0.00,VWS V14.01,2013-01-26 13:28:00,
2013-01-26 08:30:00,149.5,99.9,0.00,NW,326,0.0,0.0,100,0.00,,SKC,0.00,VWS V14.01,2013-01-26 13:30:00,
2013-01-26 08:33:00,149.5,99.9,0.00,NW,326,0.0,0.0,100,0.00,,SKC,0.00,VWS V14.01,2013-01-26 13:33:00,
2013-01-26 08:35:00,149.5,99.9,0.00,NW,326,0.0,0.0,100,0.00,,SKC,0.00,VWS V14.01,2013-01-26 13:35:00,
2013-01-26 08:38:00,149.5,99.9,0.00,NW,326,0.0,0.0,100,0.00,,SKC,0.00,VWS V14.01,2013-01-26 13:38:00,
2013-01-26 08:40:00,149.5,99.9,0.00,NW,326,0.0,0.0,100,0.00,,SKC,0.00,VWS V14.01,2013-01-26 13:40:00,
2013-01-26 08:44:00,149.5,99.9,0.00,NW,326,0.0,0.0,100,0.00,,SKC,0.00,VWS V14.01,2013-01-26 13:44:00,
2013-01-26 08:45:00,149.5,99.9,0.00,NW,326,0.0,0.0,100,0.00,,SKC,0.00,VWS V14.01,2013-01-26 13:45:00,
2013-01-26 08:49:00,149.5,99.9,0.00,NW,326,0.0,0.0,100,0.00,,SKC,0.00,VWS V14.01,2013-01-26 13:49:00,
2013-01-26 08:50:00,149.5,99.9,0.00,NW,326,0.0,0.0,100,0.00,,SKC,0.00,VWS V14.01,2013-01-26 13:50:00,
2013-01-26 08:51:00,149.5,99.9,0.00,NW,326,0.0,0.0,100,0.00,,SKC,0.00,VWS V14.01,2013-01-26 13:51:00,
2013-01-26 08:54:00,149.5,99.9,0.00,NW,326,0.0,0.0,100,0.00,,SKC,0.00,VWS V14.01,2013-01-26 13:54:00,
2013-01-26 08:56:00,149.5,99.9,0.00,NW,326,0.0,0.0,100,0.00,,SKC,0.00,VWS V14.01,2013-01-26 13:56:00,
2013-01-26 08:59:00,149.5,99.9,0.00,NW,326,0.0,0.0,100,0.00,,SKC,0.00,VWS V14.01,2013-01-26 13:59:00,
2013-01-26 09:01:00,149.5,99.9,0.00,NW,326,0.0,0.0,100,0.00,,SKC,0.00,VWS V14.01,2013-01-26 14:01:00,
2013-01-26 09:04:00,149.5,99.9,0.00,NW,326,0.0,0.0,100,0.00,,SKC,0.00,VWS V14.01,2013-01-26 14:04:00,
2013-01-26 09:06:00,149.5,99.9,0.00,North,357,0.0,0.0,100,0.00,,SKC,0.00,VWS V14.01,2013-01-26 14:06:00,
2013-01-26 09:09:00,149.5,99.9,0.00,North,357,0.0,0.0,100,0.00,,SKC,0.00,VWS V14.01,2013-01-26 14:09:00,
2013-01-26 09:11:00,149.5,99.9,0.00,North,357,0.0,0.0,100,0.00,,SKC,0.00,VWS V14.01,2013-01-26 14:11:00,
2013-01-26 09:14:00,149.5,99.9,0.00,North,357,0.0,0.0,100,0.00,,SKC,0.00,VWS V14.01,2013-01-26 14:14:00,
2013-01-26 09:16:00,149.5,99.9,0.00,North,357,0.0,0.0,100,0.00,,SKC,0.00,VWS V14.01,2013-01-26 14:16:00,
2013-01-26 09:19:00,149.5,99.9,0.00,North,357,0.0,0.0,100,0.00,,SKC,0.00,VWS V14.01,2013-01-26 14:19:00,
2013-01-26 09:21:00,149.5,99.9,0.00,North,357,0.0,0.0,100,0.00,,SKC,0.00,VWS V14.01,2013-01-26 14:21:00,
2013-01-26 09:24:00,149.5,99.9,0.00,North,357,0.0,0.0,100,0.00,,SKC,0.00,VWS V14.01,2013-01-26 14:24:00,
2013-01-26 09:25:00,149.5,99.9,0.00,North,357,0.0,0.0,100,0.00,,SKC,0.00,VWS V14.01,2013-01-26 14:25:00,
2013-01-26 09:26:00,149.5,99.9,0.00,North,357,0.0,0.0,100,0.00,,SKC,0.00,VWS V14.01,2013-01-26 14:26:00,
2013-01-26 09:29:00,149.5,99.9,0.00,North,357,0.0,0.0,100,0.00,,SKC,0.00,VWS V14.01,2013-01-26 14:29:00,
2013-01-26 09:30:00,149.5,99.9,0.00,North,357,0.0,0.0,100,0.00,,SKC,0.00,VWS V14.01,2013-01-26 14:30:00,
2013-01-26 09:31:00,149.5,99.9,0.00,North,359,4.0,4.5,100,0.00,,SKC,0.00,VWS V14.01,2013-01-26 14:31:00,
2013-01-26 09:32:00,149.5,99.9,0.00,North,357,3.3,4.5,100,0.00,,SKC,0.00,VWS V14.01,2013-01-26 14:32:00,
2013-01-26 09:34:00,149.5,99.9,0.00,North,356,0.5,1.6,100,0.00,,SKC,0.00,VWS V14.01,2013-01-26 14:34:00,
2013-01-26 09:35:00,149.5,99.9,0.00,North,0,1.6,2.1,100,0.00,,SKC,0.00,VWS V14.01,2013-01-26 14:35:00,
2013-01-26 09:36:00,149.5,99.9,0.00,North,1,0.9,2.5,100,0.00,,SKC,0.00,VWS V14.01,2013-01-26 14:36:00,
2013-01-26 09:37:00,149.5,99.9,0.00,NNW,335,1.2,2.5,100,0.00,,SKC,0.00,VWS V14.01,2013-01-26 14:37:00,
2013-01-26 09:39:00,149.5,99.9,0.00,North,0,0.0,0.0,100,0.00,,SKC,0.00,VWS V14.01,2013-01-26 14:39:00,
2013-01-26 09:40:00,149.5,99.9,0.00,North,0,0.0,0.0,100,0.00,,SKC,0.00,VWS V14.01,2013-01-26 14:40:00,
2013-01-26 09:41:00,149.5,99.9,0.00,North,0,0.0,0.0,100,0.00,,SKC,0.00,VWS V14.01,2013-01-26 14:41:00,
2013-01-26 09:42:00,149.5,99.9,0.00,North,0,0.0,0.0,100,0.00,,SKC,0.00,VWS V14.01,2013-01-26 14:42:00,
2013-01-26 09:44:00,149.5,99.9,0.00,North,0,0.0,0.0,100,0.00,,SKC,0.00,VWS V14.01,2013-01-26 14:44:00,
2013-01-26 09:45:00,149.5,99.9,0.00,North,0,0.0,0.0,100,0.00,,SKC,0.00,VWS V14.01,2013-01-26 14:45:00,
2013-01-26 09:46:00,149.5,99.9,0.00,North,0,0.0,0.0,100,0.00,,SKC,0.00,VWS V14.01,2013-01-26 14:46:00,
2013-01-26 09:47:00,149.5,99.9,0.00,North,0,0.0,0.0,100,0.00,,SKC,0.00,VWS V14.01,2013-01-26 14:47:00,
2013-01-26 09:49:00,149.5,99.9,0.00,North,0,0.0,0.0,100,0.00,,SKC,0.00,VWS V14.01,2013-01-26 14:49:00,
2013-01-26 09:50:00,149.5,99.9,0.00,North,0,0.0,0.0,100,0.00,,SKC,0.00,VWS V14.01,2013-01-26 14:50:00,
2013-01-26 09:51:00,149.5,99.9,0.00,North,0,0.0,0.0,100,0.00,,SKC,0.00,VWS V14.01,2013-01-26 14:51:00,
2013-01-26 09:52:00,149.5,99.9,0.00,North,0,0.0,0.0,100,0.00,,SKC,0.00,VWS V14.01,2013-01-26 14:52:00,
2013-01-26 09:54:00,149.5,99.9,0.00,North,0,0.0,0.0,100,0.00,,SKC,0.00,VWS V14.01,2013-01-26 14:54:00,
2013-01-26 09:55:00,149.5,99.9,0.00,North,0,0.0,0.0,100,0.00,,SKC,0.00,VWS V14.01,2013-01-26 14:55:00,
2013-01-26 09:57:00,149.5,99.9,0.00,North,0,0.0,0.0,100,0.00,,SKC,0.00,VWS V14.01,2013-01-26 14:57:00,
2013-01-26 09:59:00,149.5,99.9,0.00,North,0,0.0,0.0,100,0.00,,SKC,0.00,VWS V14.01,2013-01-26 14:59:00,
2013-01-26 10:00:00,149.5,99.9,0.00,North,0,0.0,0.0,100,0.00,,SKC,0.00,VWS V14.01,2013-01-26 15:00:00,
2013-01-26 10:02:00,149.5,99.9,0.00,North,0,0.0,0.0,100,0.00,,SKC,0.00,VWS V14.01,2013-01-26 15:02:00,
2013-01-26 10:04:00,149.5,99.9,0.00,North,0,0.0,0.0,100,0.00,,SKC,0.00,VWS V14.01,2013-01-26 15:04:00,
2013-01-26 10:06:00,149.5,99.9,0.00,North,0,0.0,0.0,100,0.00,,SKC,0.00,VWS V14.01,2013-01-26 15:06:00,
2013-01-26 10:07:00,149.5,99.9,0.00,North,0,0.0,0.0,100,0.00,,SKC,0.00,VWS V14.01,2013-01-26 15:07:00,
2013-01-26 10:09:00,149.5,99.9,0.00,North,0,0.0,0.0,100,0.00,,SKC,0.00,VWS V14.01,2013-01-26 15:09:00,
2013-01-26 10:11:00,149.5,99.9,0.00,North,0,0.0,0.0,100,0.00,,SKC,0.00,VWS V14.01,2013-01-26 15:11:00,
2013-01-26 10:12:00,149.5,99.9,0.00,North,0,0.0,0.0,100,0.00,,SKC,0.00,VWS V14.01,2013-01-26 15:12:00,
2013-01-26 10:15:00,149.5,99.9,0.00,NW,305,2.4,2.5,100,0.00,,SKC,0.00,VWS V14.01,2013-01-26 15:15:00,
2013-01-26 10:16:00,149.5,99.9,0.00,NW,304,3.0,3.4,100,0.00,,SKC,0.00,VWS V14.01,2013-01-26 15:16:00,
2013-01-26 10:17:00,149.5,99.9,0.00,WNW,300,2.7,3.3,100,0.00,,SKC,0.00,VWS V14.01,2013-01-26 15:17:00,
2013-01-26 10:18:00,149.5,99.9,0.00,WNW,288,3.0,4.7,100,0.00,,SKC,0.00,VWS V14.01,2013-01-26 15:18:00,
2013-01-26 10:20:00,149.5,99.9,0.00,WNW,290,2.4,2.4,100,0.00,,SKC,0.00,VWS V14.01,2013-01-26 15:20:00,
2013-01-26 10:21:00,149.5,99.9,0.00,WNW,291,2.4,2.6,100,0.00,,SKC,0.00,VWS V14.01,2013-01-26 15:21:00,
2013-01-26 10:22:00,149.5,99.9,0.00,West,278,0.5,2.3,100,0.00,,SKC,0.00,VWS V14.01,2013-01-26 15:22:00,
2013-01-26 10:23:00,149.5,99.9,0.00,WNW,292,1.4,1.4,100,0.00,,SKC,0.00,VWS V14.01,2013-01-26 15:23:00,
2013-01-26 10:25:00,149.5,99.9,0.00,WNW,287,1.9,2.5,100,0.00,,SKC,0.00,VWS V14.01,2013-01-26 15:25:00,
2013-01-26 10:26:00,149.5,99.9,0.00,WNW,292,2.9,2.9,100,0.00,,SKC,0.00,VWS V14.01,2013-01-26 15:26:00,
2013-01-26 10:27:00,149.5,99.9,0.00,WNW,288,1.2,3.0,100,0.00,,SKC,0.00,VWS V14.01,2013-01-26 15:27:00,
2013-01-26 10:28:00,149.5,99.9,0.00,WNW,287,0.7,1.4,100,0.00,,SKC,0.00,VWS V14.01,2013-01-26 15:28:00,
2013-01-26 10:30:00,149.5,99.9,0.00,WNW,291,1.9,2.5,100,0.00,,SKC,0.00,VWS V14.01,2013-01-26 15:30:00,
2013-01-26 10:31:00,149.5,99.9,0.00,WNW,284,1.5,2.1,100,0.00,,SKC,0.00,VWS V14.01,2013-01-26 15:31:00,
2013-01-26 10:32:00,149.5,99.9,0.00,West,278,0.0,0.7,100,0.00,,SKC,0.00,VWS V14.01,2013-01-26 15:32:00,
2013-01-26 10:33:00,149.5,99.9,0.00,WNW,302,1.5,2.4,100,0.00,,SKC,0.00,VWS V14.01,2013-01-26 15:33:00,
2013-01-26 10:35:00,149.5,99.9,0.00,WNW,292,0.0,0.0,100,0.00,,SKC,0.00,VWS V14.01,2013-01-26 15:35:00,
2013-01-26 10:36:00,149.5,99.9,0.00,WNW,292,0.0,0.0,100,0.00,,SKC,0.00,VWS V14.01,2013-01-26 15:36:00,
2013-01-26 10:37:00,149.5,99.9,0.00,WNW,292,0.0,0.0,100,0.00,,SKC,0.00,VWS V14.01,2013-01-26 15:37:00,
2013-01-26 10:38:00,149.5,99.9,0.00,West,270,1.5,3.0,100,0.00,,SKC,0.00,VWS V14.01,2013-01-26 15:38:00,
2013-01-26 10:40:00,149.5,99.9,0.00,West,270,1.9,3.1,100,0.00,,SKC,0.00,VWS V14.01,2013-01-26 15:40:00,
2013-01-26 10:41:00,149.5,99.9,0.00,West,267,2.0,3.5,100,0.00,,SKC,0.00,VWS V14.01,2013-01-26 15:41:00,
2013-01-26 10:42:00,149.5,99.9,0.00,West,267,2.9,2.9,100,0.00,,SKC,0.00,VWS V14.01,2013-01-26 15:42:00,
2013-01-26 10:43:00,149.5,99.9,0.00,WSW,255,3.7,4.8,100,0.00,,SKC,0.00,VWS V14.01,2013-01-26 15:43:00,
2013-01-26 10:45:00,149.5,99.9,0.00,WSW,249,3.0,3.2,100,0.00,,SKC,0.00,VWS V14.01,2013-01-26 15:45:00,
2013-01-26 10:46:00,149.5,99.9,0.00,West,260,4.2,4.7,100,0.00,,SKC,0.00,VWS V14.01,2013-01-26 15:46:00,
2013-01-26 10:47:00,149.5,99.9,0.00,WSW,255,3.6,3.9,100,0.00,,SKC,0.00,VWS V14.01,2013-01-26 15:47:00,
2013-01-26 10:48:00,149.5,99.9,0.00,WSW,250,2.7,3.2,100,0.00,,SKC,0.00,VWS V14.01,2013-01-26 15:48:00,
2013-01-26 10:50:00,149.5,99.9,0.00,WSW,252,2.7,3.6,100,0.00,,SKC,0.00,VWS V14.01,2013-01-26 15:50:00,
2013-01-26 10:51:00,149.5,99.9,0.00,WSW,253,2.8,2.9,100,0.00,,SKC,0.00,VWS V14.01,2013-01-26 15:51:00,
2013-01-26 10:52:00,149.5,99.9,0.00,WSW,249,3.5,3.5,100,0.00,,SKC,0.00,VWS V14.01,2013-01-26 15:52:00,
2013-01-26 10:53:00,149.5,99.9,0.00,WSW,243,3.5,4.0,100,0.00,,SKC,0.00,VWS V14.01,2013-01-26 15:53:00,
2013-01-26 10:55:00,149.5,99.9,0.00,WSW,242,4.9,4.9,100,0.00,,SKC,0.00,VWS V14.01,2013-01-26 15:55:00,
2013-01-26 10:56:00,149.5,99.9,0.00,WSW,240,6.3,6.5,100,0.00,,SKC,0.00,VWS V14.01,2013-01-26 15:56:00,
2013-01-26 10:57:00,149.5,99.9,0.00,WSW,238,5.5,6.5,100,0.00,,SKC,0.00,VWS V14.01,2013-01-26 15:57:00,
2013-01-26 10:58:00,149.5,99.9,0.00,WSW,239,6.9,6.9,100,0.00,,SKC,0.00,VWS V14.01,2013-01-26 15:58:00,
2013-01-26 11:00:00,149.5,99.9,0.00,WSW,250,5.4,5.5,100,0.00,,SKC,0.00,VWS V14.01,2013-01-26 16:00:00,
2013-01-26 11:01:00,149.5,99.9,0.00,WSW,242,4.4,5.7,100,0.00,,SKC,0.00,VWS V14.01,2013-01-26 16:01:00,
2013-01-26 11:02:00,149.5,99.9,0.00,WSW,240,5.6,6.2,100,0.00,,SKC,0.00,VWS V14.01,2013-01-26 16:02:00,
2013-01-26 11:03:00,149.5,99.9,0.00,WSW,243,6.0,6.2,100,0.00,,SKC,0.00,VWS V14.01,2013-01-26 16:03:00,
2013-01-26 11:06:00,149.5,99.9,0.00,WSW,242,2.9,5.1,100,0.00,,SKC,0.00,VWS V14.01,2013-01-26 16:06:00,
2013-01-26 11:07:00,149.5,99.9,0.00,WSW,240,5.0,5.0,100,0.00,,SKC,0.00,VWS V14.01,2013-01-26 16:07:00,
2013-01-26 11:08:00,149.5,99.9,0.00,WSW,239,5.3,5.5,100,0.00,,SKC,0.00,VWS V14.01,2013-01-26 16:08:00,
2013-01-26 11:11:00,149.5,99.9,0.00,WSW,243,3.9,5.0,100,0.00,,SKC,0.00,VWS V14.01,2013-01-26 16:11:00,
2013-01-26 11:12:00,149.5,99.9,0.00,WSW,243,3.7,5.0,100,0.00,,SKC,0.00,VWS V14.01,2013-01-26 16:12:00,
2013-01-26 11:13:00,149.5,99.9,0.00,WSW,249,5.8,7.0,100,0.00,,SKC,0.00,VWS V14.01,2013-01-26 16:13:00,
2013-01-26 11:16:00,149.5,99.9,0.00,WSW,248,6.4,7.1,100,0.00,,SKC,0.00,VWS V14.01,2013-01-26 16:16:00,
2013-01-26 11:17:00,149.5,99.9,0.00,WSW,255,5.7,7.3,100,0.00,,SKC,0.00,VWS V14.01,2013-01-26 16:17:00,
2013-01-26 11:18:00,149.5,99.9,0.00,WSW,238,5.5,5.5,100,0.00,,SKC,0.00,VWS V14.01,2013-01-26 16:18:00,
2013-01-26 11:21:00,149.5,99.9,0.00,SW,222,6.1,7.3,100,0.00,,SKC,0.00,VWS V14.01,2013-01-26 16:21:00,
2013-01-26 11:22:00,149.5,99.9,0.00,WSW,246,4.4,6.2,100,0.00,,SKC,0.00,VWS V14.01,2013-01-26 16:22:00,
2013-01-26 11:23:00,149.5,99.9,0.00,SW,231,6.6,6.6,100,0.00,,SKC,0.00,VWS V14.01,2013-01-26 16:23:00,
2013-01-26 11:26:00,149.5,99.9,0.00,WSW,245,3.6,4.0,100,0.00,,SKC,0.00,VWS V14.01,2013-01-26 16:26:00,
2013-01-26 11:27:00,149.5,99.9,0.00,SW,235,2.2,5.5,100,0.00,,SKC,0.00,VWS V14.01,2013-01-26 16:27:00,
2013-01-26 11:28:00,149.5,99.9,0.00,WSW,243,3.1,3.7,100,0.00,,SKC,0.00,VWS V14.01,2013-01-26 16:28:00,
2013-01-26 11:31:00,149.5,99.9,0.00,WSW,253,3.4,4.2,100,0.00,,SKC,0.00,VWS V14.01,2013-01-26 16:31:00,
2013-01-26 11:32:00,149.5,99.9,0.00,WSW,246,2.0,4.8,100,0.00,,SKC,0.00,VWS V14.01,2013-01-26 16:32:00,
2013-01-26 11:33:00,149.5,99.9,0.00,SW,229,2.7,3.4,100,0.00,,SKC,0.00,VWS V14.01,2013-01-26 16:33:00,
2013-01-26 11:36:00,149.5,99.9,0.00,SSW,210,3.7,3.7,100,0.00,,SKC,0.00,VWS V14.01,2013-01-26 16:36:00,
2013-01-26 11:37:00,149.5,99.9,0.00,West,274,5.2,7.4,100,0.00,,SKC,0.00,VWS V14.01,2013-01-26 16:37:00,
2013-01-26 11:38:00,149.5,99.9,0.00,WSW,245,4.0,4.0,100,0.00,,SKC,0.00,VWS V14.01,2013-01-26 16:38:00,
2013-01-26 11:41:00,149.5,99.9,0.00,SW,235,6.5,6.7,100,0.00,,SKC,0.00,VWS V14.01,2013-01-26 16:41:00,
2013-01-26 11:42:00,149.5,99.9,0.00,SW,215,4.2,6.7,100,0.00,,SKC,0.00,VWS V14.01,2013-01-26 16:42:00,
2013-01-26 11:43:00,149.5,99.9,0.00,West,260,2.7,2.7,100,0.00,,SKC,0.00,VWS V14.01,2013-01-26 16:43:00,
2013-01-26 11:46:00,149.5,99.9,0.00,WSW,257,4.9,6.5,100,0.00,,SKC,0.00,VWS V14.01,2013-01-26 16:46:00,
2013-01-26 11:47:00,149.5,99.9,0.00,WSW,240,5.3,5.3,100,0.00,,SKC,0.00,VWS V14.01,2013-01-26 16:47:00,
2013-01-26 11:48:00,149.5,99.9,0.00,WSW,245,6.2,6.2,100,0.00,,SKC,0.00,VWS V14.01,2013-01-26 16:48:00,
2013-01-26 11:49:00,149.5,99.9,0.00,SW,229,6.6,6.6,100,0.00,,SKC,0.00,VWS V14.01,2013-01-26 16:49:00,
2013-01-26 11:51:00,149.5,99.9,0.00,NW,304,4.0,5.3,100,0.00,,SKC,0.00,VWS V14.01,2013-01-26 16:51:00,
2013-01-26 11:52:00,149.5,99.9,0.00,WSW,252,3.4,3.4,100,0.00,,SKC,0.00,VWS V14.01,2013-01-26 16:52:00,
2013-01-26 11:53:00,149.5,99.9,0.00,NW,314,5.3,5.3,100,0.00,,SKC,0.00,VWS V14.01,2013-01-26 16:53:00,
2013-01-26 11:54:00,149.5,99.9,0.00,SSW,198,2.9,7.5,100,0.00,,SKC,0.00,VWS V14.01,2013-01-26 16:54:00,
2013-01-26 11:56:00,149.5,99.9,0.00,WSW,246,7.2,7.2,100,0.00,,SKC,0.00,VWS V14.01,2013-01-26 16:56:00,
2013-01-26 11:57:00,149.5,99.9,0.00,WSW,253,5.1,7.0,100,0.00,,SKC,0.00,VWS V14.01,2013-01-26 16:57:00,
2013-01-26 11:58:00,149.5,99.9,0.00,SW,228,5.0,8.0,100,0.00,,SKC,0.00,VWS V14.01,2013-01-26 16:58:00,
2013-01-26 11:59:00,149.5,99.9,0.00,West,281,5.1,8.0,100,0.00,,SKC,0.00,VWS V14.01,2013-01-26 16:59:00,
2013-01-26 12:02:00,149.5,99.9,0.00,WSW,239,5.9,6.7,100,0.00,,SKC,0.00,VWS V14.01,2013-01-26 17:02:00,
2013-01-26 12:03:00,149.5,99.9,0.00,WSW,242,3.0,3.5,100,0.00,,SKC,0.00,VWS V14.01,2013-01-26 17:03:00,
2013-01-26 12:04:00,149.5,99.9,0.00,SW,221,5.8,5.8,100,0.00,,SKC,0.00,VWS V14.01,2013-01-26 17:04:00,
2013-01-26 12:07:00,149.5,99.9,0.00,WSW,246,5.4,7.3,100,0.00,,SKC,0.00,VWS V14.01,2013-01-26 17:07:00,
2013-01-26 12:08:00,149.5,99.9,0.00,SW,231,6.6,6.8,99,0.00,,SKC,0.00,VWS V14.01,2013-01-26 17:08:00,
2013-01-26 12:09:00,149.5,99.9,0.00,SW,235,8.2,8.7,99,0.00,,SKC,0.00,VWS V14.01,2013-01-26 17:09:00,
2013-01-26 12:12:00,149.5,99.9,0.00,SSW,212,5.9,7.8,99,0.00,,SKC,0.00,VWS V14.01,2013-01-26 17:12:00,
2013-01-26 12:13:00,149.5,99.9,0.00,WSW,255,7.2,7.4,100,0.00,,SKC,0.00,VWS V14.01,2013-01-26 17:13:00,
2013-01-26 12:14:00,149.5,99.9,0.00,SSW,208,5.0,6.3,100,0.00,,SKC,0.00,VWS V14.01,2013-01-26 17:14:00,
2013-01-26 12:17:00,149.5,99.9,0.00,WSW,256,5.7,7.1,100,0.00,,SKC,0.00,VWS V14.01,2013-01-26 17:17:00,
2013-01-26 12:18:00,149.5,99.9,0.00,WSW,246,5.5,8.8,100,0.00,,SKC,0.00,VWS V14.01,2013-01-26 17:18:00,
2013-01-26 12:19:00,149.5,99.9,0.00,WSW,240,5.3,7.0,99,0.00,,SKC,0.00,VWS V14.01,2013-01-26 17:19:00,
2013-01-26 12:22:00,149.5,99.9,0.00,WSW,239,3.2,9.9,99,0.00,,SKC,0.00,VWS V14.01,2013-01-26 17:22:00,
2013-01-26 12:23:00,149.5,99.9,0.00,SW,229,5.2,8.8,99,0.00,,SKC,0.00,VWS V14.01,2013-01-26 17:23:00,
2013-01-26 12:24:00,149.5,99.9,0.00,WSW,250,5.3,8.7,99,0.00,,SKC,0.00,VWS V14.01,2013-01-26 17:24:00,
2013-01-26 12:27:00,149.5,99.9,0.00,WSW,252,6.5,7.5,100,0.00,,SKC,0.00,VWS V14.01,2013-01-26 17:27:00,
2013-01-26 12:28:00,149.5,99.9,0.00,WSW,246,4.0,7.3,100,0.00,,SKC,0.00,VWS V14.01,2013-01-26 17:28:00,
2013-01-26 12:29:00,149.5,99.9,0.00,West,263,6.0,6.2,100,0.00,,SKC,0.00,VWS V14.01,2013-01-26 17:29:00,
2013-01-26 12:32:00,149.5,99.9,0.00,WSW,238,8.9,9.3,100,0.00,,SKC,0.00,VWS V14.01,2013-01-26 17:32:00,
2013-01-26 12:33:00,149.5,99.9,0.00,SW,229,7.1,8.3,99,0.00,,SKC,0.00,VWS V14.01,2013-01-26 17:33:00,
2013-01-26 12:34:00,149.5,99.9,0.00,WSW,245,8.6,9.1,99,0.00,,SKC,0.00,VWS V14.01,2013-01-26 17:34:00,
2013-01-26 12:37:00,149.5,99.9,0.00,West,262,8.3,8.3,99,0.00,,SKC,0.00,VWS V14.01,2013-01-26 17:37:00,
2013-01-26 12:38:00,149.5,99.9,0.00,WSW,250,7.9,7.9,99,0.00,,SKC,0.00,VWS V14.01,2013-01-26 17:38:00,
2013-01-26 12:39:00,149.5,99.9,0.00,West,266,4.2,4.2,99,0.00,,SKC,0.00,VWS V14.01,2013-01-26 17:39:00,
2013-01-26 12:42:00,149.5,99.9,0.00,WSW,238,6.5,7.3,99,0.00,,SKC,0.00,VWS V14.01,2013-01-26 17:42:00,
2013-01-26 12:43:00,149.5,99.9,0.00,WSW,249,7.1,8.1,99,0.00,,SKC,0.00,VWS V14.01,2013-01-26 17:43:00,
2013-01-26 12:44:00,149.5,99.9,0.00,West,259,2.5,5.5,99,0.00,,SKC,0.00,VWS V14.01,2013-01-26 17:44:00,
2013-01-26 12:47:00,149.5,99.9,0.00,West,277,7.6,8.6,99,0.00,,SKC,0.00,VWS V14.01,2013-01-26 17:47:00,
2013-01-26 12:48:00,149.5,99.9,0.00,WSW,253,2.7,2.7,99,0.00,,SKC,0.00,VWS V14.01,2013-01-26 17:48:00,
2013-01-26 12:49:00,149.5,99.9,0.00,West,273,5.0,7.3,99,0.00,,SKC,0.00,VWS V14.01,2013-01-26 17:49:00,
2013-01-26 12:53:00,149.5,99.9,0.00,WNW,284,4.8,7.8,98,0.00,,SKC,0.00,VWS V14.01,2013-01-26 17:53:00,
2013-01-26 12:54:00,149.5,99.9,0.00,WSW,245,10.2,10.2,98,0.00,,SKC,0.00,VWS V14.01,2013-01-26 17:54:00,
2013-01-26 12:58:00,149.5,99.9,0.00,SW,222,6.5,8.6,98,0.00,,SKC,0.00,VWS V14.01,2013-01-26 17:58:00,
2013-01-26 12:59:00,149.5,99.9,0.00,SW,214,8.1,9.4,98,0.00,,SKC,0.00,VWS V14.01,2013-01-26 17:59:00,
2013-01-26 13:00:00,149.5,99.9,0.00,WSW,239,5.7,9.4,98,0.00,,SKC,0.00,VWS V14.01,2013-01-26 18:00:00,
2013-01-26 13:03:00,149.5,99.9,0.00,SW,229,7.1,10.1,98,0.00,,SKC,0.00,VWS V14.01,2013-01-26 18:03:00,
2013-01-26 13:05:00,149.5,99.9,0.00,SW,233,7.8,11.2,99,0.00,,SKC,0.00,VWS V14.01,2013-01-26 18:05:00,
2013-01-26 13:08:00,149.5,99.9,0.00,SW,232,5.5,7.1,99,0.00,,SKC,0.00,VWS V14.01,2013-01-26 18:08:00,
2013-01-26 13:09:00,149.5,99.9,0.00,WNW,284,6.3,7.4,99,0.00,,SKC,0.00,VWS V14.01,2013-01-26 18:09:00,
2013-01-26 13:10:00,149.5,99.9,0.00,WSW,249,7.6,8.6,99,0.00,,SKC,0.00,VWS V14.01,2013-01-26 18:10:00,
2013-01-26 13:14:00,149.5,99.9,0.00,SW,229,7.8,10.1,99,0.00,,SKC,0.00,VWS V14.01,2013-01-26 18:14:00,
2013-01-26 13:15:00,149.5,99.9,0.00,WSW,253,6.6,11.2,99,0.00,,SKC,0.00,VWS V14.01,2013-01-26 18:15:00,
2013-01-26 13:19:00,149.5,99.9,0.00,SW,217,4.3,8.7,99,0.00,,SKC,0.00,VWS V14.01,2013-01-26 18:19:00,
2013-01-26 13:20:00,149.5,99.9,0.00,SW,221,5.6,8.0,99,0.00,,SKC,0.00,VWS V14.01,2013-01-26 18:20:00,
2013-01-26 13:24:00,149.5,99.9,0.00,WNW,283,10.5,10.5,99,0.00,,SKC,0.00,VWS V14.01,2013-01-26 18:24:00,
2013-01-26 13:25:00,149.5,99.9,0.00,SW,235,7.0,8.9,99,0.00,,SKC,0.00,VWS V14.01,2013-01-26 18:25:00,
2013-01-26 13:26:00,149.5,99.9,0.00,West,263,5.7,7.0,99,0.00,,SKC,0.00,VWS V14.01,2013-01-26 18:26:00,
2013-01-26 13:29:00,149.5,99.9,0.00,NW,318,2.6,9.9,98,0.00,,SKC,0.00,VWS V14.01,2013-01-26 18:29:00,
2013-01-26 13:30:00,149.5,99.9,0.00,West,264,9.3,9.3,98,0.00,,SKC,0.00,VWS V14.01,2013-01-26 18:30:00,
2013-01-26 13:31:00,149.5,99.9,0.00,WSW,249,7.3,8.8,98,0.00,,SKC,0.00,VWS V14.01,2013-01-26 18:31:00,
2013-01-26 13:34:00,149.5,99.9,0.00,WSW,250,8.1,10.1,98,0.00,,SKC,0.00,VWS V14.01,2013-01-26 18:34:00,
2013-01-26 13:35:00,149.5,99.9,0.00,WNW,284,9.3,10.0,98,0.00,,SKC,0.00,VWS V14.01,2013-01-26 18:35:00,
2013-01-26 13:36:00,149.5,99.9,0.00,WSW,250,3.4,6.7,98,0.00,,SKC,0.00,VWS V14.01,2013-01-26 18:36:00,
2013-01-26 13:39:00,149.5,99.9,0.00,WSW,243,7.3,9.6,98,0.00,,SKC,0.00,VWS V14.01,2013-01-26 18:39:00,
2013-01-26 13:40:00,149.5,99.9,0.00,West,267,4.3,4.7,98,0.00,,SKC,0.00,VWS V14.01,2013-01-26 18:40:00,
2013-01-26 13:41:00,149.5,99.9,0.00,WSW,253,6.0,8.5,98,0.00,,SKC,0.00,VWS V14.01,2013-01-26 18:41:00,
2013-01-26 13:44:00,149.5,99.9,0.00,WSW,249,5.0,6.9,98,0.00,,SKC,0.00,VWS V14.01,2013-01-26 18:44:00,
2013-01-26 13:45:00,149.5,99.9,0.00,SW,233,5.8,6.2,97,0.00,,SKC,0.00,VWS V14.01,2013-01-26 18:45:00,
2013-01-26 13:46:00,149.5,99.9,0.00,West,264,6.1,7.7,97,0.00,,SKC,0.00,VWS V14.01,2013-01-26 18:46:00,
2013-01-26 13:49:00,149.5,99.9,0.00,WNW,288,4.6,7.1,97,0.00,,SKC,0.00,VWS V14.01,2013-01-26 18:49:00,
2013-01-26 13:50:00,149.5,99.9,0.00,WSW,252,5.8,7.1,97,0.00,,SKC,0.00,VWS V14.01,2013-01-26 18:50:00,
2013-01-26 13:51:00,149.5,99.9,0.00,West,273,5.9,7.8,98,0.00,,SKC,0.00,VWS V14.01,2013-01-26 18:51:00,
2013-01-26 13:55:00,149.5,99.9,0.00,West,269,5.9,6.5,97,0.00,,SKC,0.00,VWS V14.01,2013-01-26 18:55:00,
2013-01-26 13:56:00,149.5,99.9,0.00,West,273,5.0,8.4,97,0.00,,SKC,0.00,VWS V14.01,2013-01-26 18:56:00,
2013-01-26 13:57:00,149.5,99.9,0.00,WSW,253,5.9,9.6,97,0.00,,SKC,0.00,VWS V14.01,2013-01-26 18:57:00,
2013-01-26 14:00:00,149.5,99.9,0.00,WSW,257,9.1,9.3,97,0.00,,SKC,0.00,VWS V14.01,2013-01-26 19:00:00,
2013-01-26 14:01:00,149.5,99.9,0.00,SW,233,9.3,10.7,97,0.00,,SKC,0.00,VWS V14.01,2013-01-26 19:01:00,
2013-01-26 14:02:00,149.5,99.9,0.00,SW,228,7.7,9.5,97,0.00,,SKC,0.00,VWS V14.01,2013-01-26 19:02:00,
2013-01-26 14:05:00,149.5,99.9,0.00,West,259,7.3,9.1,98,0.00,,SKC,0.00,VWS V14.01,2013-01-26 19:05:00,
2013-01-26 14:06:00,149.5,99.9,0.00,WSW,242,6.5,9.3,98,0.00,,SKC,0.00,VWS V14.01,2013-01-26 19:06:00,
2013-01-26 14:07:00,149.5,99.9,0.00,SSW,211,7.1,9.9,98,0.00,,SKC,0.00,VWS V14.01,2013-01-26 19:07:00,
2013-01-26 14:10:00,149.5,99.9,0.00,WSW,257,8.0,10.6,98,0.00,,SKC,0.00,VWS V14.01,2013-01-26 19:10:00,
2013-01-26 14:11:00,149.5,99.9,0.00,WSW,248,8.9,10.1,98,0.00,,SKC,0.00,VWS V14.01,2013-01-26 19:11:00,
2013-01-26 14:12:00,149.5,99.9,0.00,WSW,246,7.5,10.1,98,0.00,,SKC,0.00,VWS V14.01,2013-01-26 19:12:00,
2013-01-26 14:15:00,149.5,99.9,0.00,WSW,245,9.3,9.9,98,0.00,,SKC,0.00,VWS V14.01,2013-01-26 19:15:00,
2013-01-26 14:16:00,149.5,99.9,0.00,SW,232,6.6,7.8,98,0.00,,SKC,0.00,VWS V14.01,2013-01-26 19:16:00,
2013-01-26 14:17:00,149.5,99.9,0.00,West,273,4.7,7.8,98,0.00,,SKC,0.00,VWS V14.01,2013-01-26 19:17:00,
2013-01-26 14:20:00,149.5,99.9,0.00,WSW,246,5.5,6.9,98,0.00,,SKC,0.00,VWS V14.01,2013-01-26 19:20:00,
2013-01-26 14:21:00,149.5,99.9,0.00,WSW,252,6.7,6.7,98,0.00,,SKC,0.00,VWS V14.01,2013-01-26 19:21:00,
2013-01-26 14:22:00,149.5,99.9,0.00,WSW,250,7.5,8.0,98,0.00,,SKC,0.00,VWS V14.01,2013-01-26 19:22:00,
2013-01-26 14:25:00,149.5,99.9,0.00,WSW,248,8.7,9.4,98,0.00,,SKC,0.00,VWS V14.01,2013-01-26 19:25:00,
2013-01-26 14:26:00,149.5,99.9,0.00,West,264,6.0,7.8,97,0.00,,SKC,0.00,VWS V14.01,2013-01-26 19:26:00,
2013-01-26 14:27:00,149.5,99.9,0.00,WSW,245,6.7,8.5,97,0.00,,SKC,0.00,VWS V14.01,2013-01-26 19:27:00,
2013-01-26 14:30:00,149.5,99.9,0.00,SW,226,7.8,8.9,97,0.00,,SKC,0.00,VWS V14.01,2013-01-26 19:30:00,
2013-01-26 14:31:00,149.5,99.9,0.00,SW,229,7.6,7.6,97,0.00,,SKC,0.00,VWS V14.01,2013-01-26 19:31:00,
2013-01-26 14:32:00,149.5,99.9,0.00,SW,226,6.5,7.6,97,0.00,,SKC,0.00,VWS V14.01,2013-01-26 19:32:00,
2013-01-26 14:35:00,149.5,99.9,0.00,West,273,6.6,9.5,97,0.00,,SKC,0.00,VWS V14.01,2013-01-26 19:35:00,
2013-01-26 14:36:00,149.5,99.9,0.00,SW,214,4.4,8.3,97,0.00,,SKC,0.00,VWS V14.01,2013-01-26 19:36:00,
2013-01-26 14:37:00,149.5,99.9,0.00,SSW,207,6.5,6.5,97,0.00,,SKC,0.00,VWS V14.01,2013-01-26 19:37:00,
2013-01-26 14:40:00,149.5,99.9,0.00,West,280,5.0,5.6,97,0.00,,SKC,0.00,VWS V14.01,2013-01-26 19:40:00,
2013-01-26 14:41:00,149.5,99.9,0.00,SW,225,4.0,6.1,97,0.00,,SKC,0.00,VWS V14.01,2013-01-26 19:41:00,
2013-01-26 14:42:00,149.5,99.9,0.00,SSW,208,4.7,7.1,97,0.00,,SKC,0.00,VWS V14.01,2013-01-26 19:42:00,
2013-01-26 14:45:00,149.5,99.9,0.00,NW,316,5.1,6.3,97,0.00,,SKC,0.00,VWS V14.01,2013-01-26 19:45:00,
2013-01-26 14:46:00,149.5,99.9,0.00,WSW,248,5.0,7.9,97,0.00,,SKC,0.00,VWS V14.01,2013-01-26 19:46:00,
2013-01-26 14:47:00,149.5,99.9,0.00,SW,229,2.8,5.9,97,0.00,,SKC,0.00,VWS V14.01,2013-01-26 19:47:00,
2013-01-26 14:50:00,149.5,99.9,0.00,WNW,288,2.7,2.7,97,0.00,,SKC,0.00,VWS V14.01,2013-01-26 19:50:00,
2013-01-26 14:51:00,149.5,99.9,0.00,WSW,243,2.5,5.0,97,0.00,,SKC,0.00,VWS V14.01,2013-01-26 19:51:00,
2013-01-26 14:52:00,149.5,99.9,0.00,WSW,245,3.6,5.4,97,0.00,,SKC,0.00,VWS V14.01,2013-01-26 19:52:00,
2013-01-26 14:55:00,149.5,99.9,0.00,WSW,253,3.7,4.7,97,0.00,,SKC,0.00,VWS V14.01,2013-01-26 19:55:00,
2013-01-26 14:56:00,149.5,99.9,0.00,WNW,283,8.2,8.2,97,0.00,,SKC,0.00,VWS V14.01,2013-01-26 19:56:00,
2013-01-26 14:57:00,149.5,99.9,0.00,SW,236,2.9,4.3,96,0.00,,SKC,0.00,VWS V14.01,2013-01-26 19:57:00,
2013-01-26 15:00:00,149.5,99.9,0.00,WSW,245,4.4,6.3,96,0.00,,SKC,0.00,VWS V14.01,2013-01-26 20:00:00,
2013-01-26 15:01:00,149.5,99.9,0.00,West,281,5.6,10.1,96,0.00,,SKC,0.00,VWS V14.01,2013-01-26 20:01:00,
2013-01-26 15:02:00,149.5,99.9,0.00,WSW,239,2.9,3.6,96,0.00,,SKC,0.00,VWS V14.01,2013-01-26 20:02:00,
2013-01-26 15:05:00,149.5,99.9,0.00,SSW,211,5.5,8.1,96,0.00,,SKC,0.00,VWS V14.01,2013-01-26 20:05:00,
2013-01-26 15:06:00,149.5,99.9,0.00,NW,325,3.7,3.7,96,0.00,,SKC,0.00,VWS V14.01,2013-01-26 20:06:00,
2013-01-26 15:08:00,149.5,99.9,0.00,WNW,288,8.2,9.6,96,0.00,,SKC,0.00,VWS V14.01,2013-01-26 20:08:00,
2013-01-26 15:10:00,149.5,99.9,0.00,SW,226,5.3,7.6,96,0.00,,SKC,0.00,VWS V14.01,2013-01-26 20:10:00,
2013-01-26 15:11:00,149.5,99.9,0.00,WSW,249,3.9,7.6,96,0.00,,SKC,0.00,VWS V14.01,2013-01-26 20:11:00,
2013-01-26 15:12:00,149.5,99.9,0.00,NW,308,1.7,4.8,96,0.00,,SKC,0.00,VWS V14.01,2013-01-26 20:12:00,
2013-01-26 15:13:00,149.5,99.9,0.00,West,259,5.7,9.3,96,0.00,,SKC,0.00,VWS V14.01,2013-01-26 20:13:00,
2013-01-26 15:15:00,149.5,99.9,0.00,West,262,5.7,5.7,96,0.00,,SKC,0.00,VWS V14.01,2013-01-26 20:15:00,
2013-01-26 15:16:00,149.5,99.9,0.00,WNW,300,4.5,4.5,96,0.00,,SKC,0.00,VWS V14.01,2013-01-26 20:16:00,
2013-01-26 15:17:00,149.5,99.9,0.00,WSW,255,3.3,4.6,96,0.00,,SKC,0.00,VWS V14.01,2013-01-26 20:17:00,
2013-01-26 15:18:00,149.5,99.9,0.00,West,271,4.0,4.7,96,0.00,,SKC,0.00,VWS V14.01,2013-01-26 20:18:00,
2013-01-26 15:21:00,149.5,99.9,0.00,WSW,243,4.8,6.0,96,0.00,,SKC,0.00,VWS V14.01,2013-01-26 20:21:00,
2013-01-26 15:22:00,149.5,99.9,0.00,SSW,208,4.5,6.3,96,0.00,,SKC,0.00,VWS V14.01,2013-01-26 20:22:00,
2013-01-26 15:23:00,149.5,99.9,0.00,South,191,5.1,5.2,96,0.00,,SKC,0.00,VWS V14.01,2013-01-26 20:23:00,
2013-01-26 15:26:00,149.5,99.9,0.00,WSW,242,3.5,6.2,96,0.00,,SKC,0.00,VWS V14.01,2013-01-26 20:26:00,
2013-01-26 15:27:00,149.5,99.9,0.00,West,263,4.5,4.7,96,0.00,,SKC,0.00,VWS V14.01,2013-01-26 20:27:00,
2013-01-26 15:28:00,149.5,99.9,0.00,SW,232,5.1,5.1,96,0.00,,SKC,0.00,VWS V14.01,2013-01-26 20:28:00,
2013-01-26 15:31:00,149.5,99.9,0.00,WSW,246,7.7,7.7,96,0.00,,SKC,0.00,VWS V14.01,2013-01-26 20:31:00,
2013-01-26 15:32:00,149.5,99.9,0.00,West,259,8.3,8.3,96,0.00,,SKC,0.00,VWS V14.01,2013-01-26 20:32:00,
2013-01-26 15:33:00,149.5,99.9,0.00,SW,233,4.9,7.1,96,0.00,,SKC,0.00,VWS V14.01,2013-01-26 20:33:00,
2013-01-26 15:36:00,149.5,99.9,0.00,WSW,243,3.5,7.3,96,0.00,,SKC,0.00,VWS V14.01,2013-01-26 20:36:00,
2013-01-26 15:37:00,149.5,99.9,0.00,SW,235,7.5,8.9,96,0.00,,SKC,0.00,VWS V14.01,2013-01-26 20:37:00,
2013-01-26 15:39:00,149.5,99.9,0.00,SW,229,3.6,9.1,96,0.00,,SKC,0.00,VWS V14.01,2013-01-26 20:39:00,
2013-01-26 15:41:00,149.5,99.9,0.00,SW,233,6.6,6.6,96,0.00,,SKC,0.00,VWS V14.01,2013-01-26 20:41:00,
2013-01-26 15:42:00,149.5,99.9,0.00,WSW,238,5.9,9.4,96,0.00,,SKC,0.00,VWS V14.01,2013-01-26 20:42:00,
2013-01-26 15:44:00,149.5,99.9,0.00,WSW,240,6.5,9.9,97,0.00,,SKC,0.00,VWS V14.01,2013-01-26 20:44:00,
2013-01-26 15:46:00,149.5,99.9,0.00,SW,233,8.1,8.3,97,0.00,,SKC,0.00,VWS V14.01,2013-01-26 20:46:00,
2013-01-26 15:47:00,149.5,99.9,0.00,SW,222,7.3,9.1,97,0.00,,SKC,0.00,VWS V14.01,2013-01-26 20:47:00,
2013-01-26 15:49:00,149.5,99.9,0.00,WSW,256,6.8,8.6,97,0.00,,SKC,0.00,VWS V14.01,2013-01-26 20:49:00,
2013-01-26 15:51:00,149.5,99.9,0.00,West,266,6.5,8.0,97,0.00,,SKC,0.00,VWS V14.01,2013-01-26 20:51:00,
2013-01-26 15:52:00,149.5,99.9,0.00,SW,218,7.1,7.1,97,0.00,,SKC,0.00,VWS V14.01,2013-01-26 20:52:00,
2013-01-26 15:54:00,149.5,99.9,0.00,WSW,245,5.3,8.1,98,0.00,,SKC,0.00,VWS V14.01,2013-01-26 20:54:00,
2013-01-26 15:56:00,149.5,99.9,0.00,WSW,245,8.5,8.5,98,0.00,,SKC,0.00,VWS V14.01,2013-01-26 20:56:00,
2013-01-26 15:57:00,149.5,99.9,0.00,WSW,248,8.0,8.0,98,0.00,,SKC,0.00,VWS V14.01,2013-01-26 20:57:00,
2013-01-26 15:59:00,149.5,99.9,0.00,West,267,7.1,9.3,98,0.00,,SKC,0.00,VWS V14.01,2013-01-26 20:59:00,
2013-01-26 16:01:00,149.5,99.9,0.00,WSW,240,8.6,9.3,98,0.00,,SKC,0.00,VWS V14.01,2013-01-26 21:01:00,
2013-01-26 16:02:00,149.5,99.9,0.00,SW,228,7.0,7.6,98,0.00,,SKC,0.00,VWS V14.01,2013-01-26 21:02:00,
2013-01-26 16:03:00,149.5,99.9,0.00,WSW,256,8.9,8.9,98,0.00,,SKC,0.00,VWS V14.01,2013-01-26 21:03:00,
2013-01-26 16:04:00,149.5,99.9,0.00,WSW,238,7.5,8.3,98,0.00,,SKC,0.00,VWS V14.01,2013-01-26 21:04:00,
2013-01-26 16:06:00,149.5,99.9,0.00,SW,231,8.5,8.7,98,0.00,,SKC,0.00,VWS V14.01,2013-01-26 21:06:00,
2013-01-26 16:08:00,149.5,99.9,0.00,WSW,242,7.2,8.1,98,0.00,,SKC,0.00,VWS V14.01,2013-01-26 21:08:00,
2013-01-26 16:10:00,149.5,99.9,0.00,SW,229,6.8,10.5,98,0.00,,SKC,0.00,VWS V14.01,2013-01-26 21:10:00,
2013-01-26 16:11:00,149.5,99.9,0.00,West,262,8.0,8.9,98,0.00,,SKC,0.00,VWS V14.01,2013-01-26 21:11:00,
2013-01-26 16:13:00,149.5,99.9,0.00,SW,215,9.3,9.8,98,0.00,,SKC,0.00,VWS V14.01,2013-01-26 21:13:00,
2013-01-26 16:15:00,149.5,99.9,0.00,WSW,253,8.1,10.2,98,0.00,,SKC,0.00,VWS V14.01,2013-01-26 21:15:00,
2013-01-26 16:17:00,149.5,99.9,0.00,WSW,257,7.5,9.3,98,0.00,,SKC,0.00,VWS V14.01,2013-01-26 21:17:00,
2013-01-26 16:18:00,149.5,99.9,0.00,SW,225,2.9,6.8,98,0.00,,SKC,0.00,VWS V14.01,2013-01-26 21:18:00,
2013-01-26 16:20:00,149.5,99.9,0.00,SSW,207,1.3,4.0,99,0.00,,SKC,0.00,VWS V14.01,2013-01-26 21:20:00,
2013-01-26 16:22:00,149.5,99.9,0.00,WSW,253,3.2,4.2,98,0.00,,SKC,0.00,VWS V14.01,2013-01-26 21:22:00,
2013-01-26 16:23:00,149.5,99.9,0.00,SW,217,3.2,4.9,98,0.00,,SKC,0.00,VWS V14.01,2013-01-26 21:23:00,
2013-01-26 16:25:00,149.5,99.9,0.00,SW,228,1.1,1.2,98,0.00,,SKC,0.00,VWS V14.01,2013-01-26 21:25:00,
2013-01-26 16:27:00,149.5,99.9,0.00,SW,214,4.2,6.8,98,0.00,,SKC,0.00,VWS V14.01,2013-01-26 21:27:00,
2013-01-26 16:28:00,149.5,99.9,0.00,WSW,245,8.5,9.1,98,0.00,,SKC,0.00,VWS V14.01,2013-01-26 21:28:00,
2013-01-26 16:30:00,149.5,99.9,0.00,West,271,5.7,8.9,98,0.00,,SKC,0.00,VWS V14.01,2013-01-26 21:30:00,
2013-01-26 16:32:00,149.5,99.9,0.00,West,259,7.8,8.3,98,0.00,,SKC,0.00,VWS V14.01,2013-01-26 21:32:00,
2013-01-26 16:33:00,149.5,99.9,0.00,West,259,5.5,6.5,98,0.00,,SKC,0.00,VWS V14.01,2013-01-26 21:33:00,
2013-01-26 16:36:00,149.5,99.9,0.00,West,263,5.5,6.0,98,0.00,,SKC,0.00,VWS V14.01,2013-01-26 21:36:00,
2013-01-26 16:37:00,149.5,99.9,0.00,West,274,4.2,5.2,98,0.00,,SKC,0.00,VWS V14.01,2013-01-26 21:37:00,
2013-01-26 16:38:00,149.5,99.9,0.00,West,267,3.9,4.5,98,0.00,,SKC,0.00,VWS V14.01,2013-01-26 21:38:00,
2013-01-26 16:41:00,149.5,99.9,0.00,SW,235,2.9,4.2,98,0.00,,SKC,0.00,VWS V14.01,2013-01-26 21:41:00,
2013-01-26 16:42:00,149.5,99.9,0.00,SSW,200,2.7,3.5,98,0.00,,SKC,0.00,VWS V14.01,2013-01-26 21:42:00,
2013-01-26 16:43:00,149.5,99.9,0.00,SSW,202,4.7,5.0,98,0.00,,SKC,0.00,VWS V14.01,2013-01-26 21:43:00,
2013-01-26 16:46:00,149.5,99.9,0.00,SW,217,2.5,4.4,98,0.00,,SKC,0.00,VWS V14.01,2013-01-26 21:46:00,
2013-01-26 16:48:00,149.5,99.9,0.00,SSW,208,0.0,0.0,98,0.00,,SKC,0.00,VWS V14.01,2013-01-26 21:48:00,
2013-01-26 16:51:00,149.5,99.9,0.00,NNE,31,0.0,2.4,98,0.00,,SKC,0.00,VWS V14.01,2013-01-26 21:51:00,
2013-01-26 16:53:00,149.5,99.9,0.00,South,170,0.8,2.7,98,0.00,,SKC,0.00,VWS V14.01,2013-01-26 21:53:00,
2013-01-26 16:54:00,149.5,99.9,0.00,SSE,158,0.4,1.2,98,0.00,,SKC,0.00,VWS V14.01,2013-01-26 21:54:00,
2013-01-26 16:56:00,149.5,99.9,0.00,ESE,115,0.0,1.9,98,0.00,,SKC,0.00,VWS V14.01,2013-01-26 21:56:00,
2013-01-26 16:58:00,149.5,99.9,0.00,SSE,158,0.6,2.4,98,0.00,,SKC,0.00,VWS V14.01,2013-01-26 21:58:00,
2013-01-26 16:59:00,149.5,99.9,0.00,SE,132,0.0,1.2,98,0.00,,SKC,0.00,VWS V14.01,2013-01-26 21:59:00,
2013-01-26 17:01:00,149.5,99.9,0.00,SSW,195,1.9,3.8,98,0.00,,SKC,0.00,VWS V14.01,2013-01-26 22:01:00,
2013-01-26 17:03:00,149.5,99.9,0.00,WSW,242,2.7,3.2,98,0.00,,SKC,0.00,VWS V14.01,2013-01-26 22:03:00,
2013-01-26 17:04:00,149.5,99.9,0.00,WSW,246,1.6,3.2,98,0.00,,SKC,0.00,VWS V14.01,2013-01-26 22:04:00,
2013-01-26 17:06:00,149.5,99.9,0.00,SW,218,2.2,3.6,98,0.00,,SKC,0.00,VWS V14.01,2013-01-26 22:06:00,
2013-01-26 17:09:00,149.5,99.9,0.00,South,177,5.1,5.7,98,0.00,,SKC,0.00,VWS V14.01,2013-01-26 22:09:00,
2013-01-26 17:11:00,149.5,99.9,0.00,SSE,149,3.3,3.7,98,0.00,,SKC,0.00,VWS V14.01,2013-01-26 22:11:00,
2013-01-26 17:14:00,149.5,99.9,0.00,SSW,208,4.1,4.8,98,0.00,,SKC,0.00,VWS V14.01,2013-01-26 22:14:00,
2013-01-26 17:16:00,149.5,99.9,0.00,SSW,210,4.0,4.5,98,0.00,,SKC,0.00,VWS V14.01,2013-01-26 22:16:00,
2013-01-26 17:19:00,149.5,99.9,0.00,SW,221,3.0,3.9,98,0.00,,SKC,0.00,VWS V14.01,2013-01-26 22:19:00,
2013-01-26 17:21:00,149.5,99.9,0.00,SW,235,2.2,2.2,98,0.00,,SKC,0.00,VWS V14.01,2013-01-26 22:21:00,
2013-01-26 17:24:00,149.5,99.9,0.00,SW,228,3.2,3.4,98,0.00,,SKC,0.00,VWS V14.01,2013-01-26 22:24:00,
2013-01-26 17:26:00,149.5,99.9,0.00,SW,221,5.1,5.1,98,0.00,,SKC,0.00,VWS V14.01,2013-01-26 22:26:00,
2013-01-26 17:29:00,149.5,99.9,0.00,SW,232,3.5,4.0,98,0.00,,SKC,0.00,VWS V14.01,2013-01-26 22:29:00,
2013-01-26 17:30:00,149.5,99.9,0.00,SW,219,4.3,5.5,98,0.00,,SKC,0.00,VWS V14.01,2013-01-26 22:30:00,
2013-01-26 17:31:00,149.5,99.9,0.00,SW,221,0.7,3.0,98,0.00,,SKC,0.00,VWS V14.01,2013-01-26 22:31:00,
2013-01-26 17:34:00,149.5,99.9,0.00,SSW,212,3.7,4.5,98,0.00,,SKC,0.00,VWS V14.01,2013-01-26 22:34:00,
2013-01-26 17:35:00,149.5,99.9,0.00,SSW,208,3.7,5.2,98,0.00,,SKC,0.00,VWS V14.01,2013-01-26 22:35:00,
2013-01-26 17:36:00,149.5,99.9,0.00,SW,226,3.5,5.1,98,0.00,,SKC,0.00,VWS V14.01,2013-01-26 22:36:00,
2013-01-26 17:39:00,149.5,99.9,0.00,SW,225,2.1,3.3,98,0.00,,SKC,0.00,VWS V14.01,2013-01-26 22:39:00,
2013-01-26 17:40:00,149.5,99.9,0.00,SW,225,1.7,3.3,98,0.00,,SKC,0.00,VWS V14.01,2013-01-26 22:40:00,
2013-01-26 17:41:00,149.5,99.9,0.00,SW,225,2.7,3.4,98,0.00,,SKC,0.00,VWS V14.01,2013-01-26 22:41:00,
2013-01-26 17:44:00,149.5,99.9,0.00,SW,217,3.6,3.7,98,0.00,,SKC,0.00,VWS V14.01,2013-01-26 22:44:00,
2013-01-26 17:45:00,149.5,99.9,0.00,SW,231,1.3,3.7,98,0.00,,SKC,0.00,VWS V14.01,2013-01-26 22:45:00,
2013-01-26 17:46:00,149.5,99.9,0.00,SW,215,0.0,1.6,98,0.00,,SKC,0.00,VWS V14.01,2013-01-26 22:46:00,
2013-01-26 17:47:00,149.5,99.9,0.00,SW,215,1.6,1.6,98,0.00,,SKC,0.00,VWS V14.01,2013-01-26 22:47:00,
2013-01-26 17:49:00,149.5,99.9,0.00,South,177,2.5,2.9,98,0.00,,SKC,0.00,VWS V14.01,2013-01-26 22:49:00,
2013-01-26 17:50:00,149.5,99.9,0.00,South,191,1.6,3.7,98,0.00,,SKC,0.00,VWS V14.01,2013-01-26 22:50:00,
2013-01-26 17:51:00,149.5,99.9,0.00,SW,229,3.3,4.3,98,0.00,,SKC,0.00,VWS V14.01,2013-01-26 22:51:00,
2013-01-26 17:52:00,149.5,99.9,0.00,SW,226,4.3,5.0,98,0.00,,SKC,0.00,VWS V14.01,2013-01-26 22:52:00,
2013-01-26 17:54:00,149.5,99.9,0.00,SW,235,5.0,6.0,98,0.00,,SKC,0.00,VWS V14.01,2013-01-26 22:54:00,
2013-01-26 17:55:00,149.5,99.9,0.00,SW,225,5.5,6.3,98,0.00,,SKC,0.00,VWS V14.01,2013-01-26 22:55:00,
2013-01-26 17:56:00,149.5,99.9,0.00,SW,233,3.7,5.4,98,0.00,,SKC,0.00,VWS V14.01,2013-01-26 22:56:00,
2013-01-26 17:57:00,149.5,99.9,0.00,SW,225,3.4,3.5,98,0.00,,SKC,0.00,VWS V14.01,2013-01-26 22:57:00,
2013-01-26 17:59:00,149.5,99.9,0.00,SSW,210,3.2,6.3,98,0.00,,SKC,0.00,VWS V14.01,2013-01-26 22:59:00,
2013-01-26 18:00:00,149.5,99.9,0.00,SW,228,3.3,6.3,98,0.00,,SKC,0.00,VWS V14.01,2013-01-26 23:00:00,
2013-01-26 18:01:00,149.5,99.9,0.00,SW,219,5.3,7.3,99,0.00,,SKC,0.00,VWS V14.01,2013-01-26 23:01:00,
2013-01-26 18:02:00,149.5,99.9,0.00,SW,214,2.1,4.0,99,0.00,,SKC,0.00,VWS V14.01,2013-01-26 23:02:00,
2013-01-26 18:05:00,149.5,99.9,0.00,SSW,200,3.0,3.7,99,0.00,,SKC,0.00,VWS V14.01,2013-01-26 23:05:00,
2013-01-26 18:06:00,149.5,99.9,0.00,SSW,197,0.0,3.4,99,0.00,,SKC,0.00,VWS V14.01,2013-01-26 23:06:00,
2013-01-26 18:07:00,149.5,99.9,0.00,SW,235,1.4,2.2,99,0.00,,SKC,0.00,VWS V14.01,2013-01-26 23:07:00,
2013-01-26 18:10:00,149.5,99.9,0.00,SSW,204,2.9,3.0,99,0.00,,SKC,0.00,VWS V14.01,2013-01-26 23:10:00,
2013-01-26 18:11:00,149.5,99.9,0.00,SSW,201,1.1,2.7,99,0.00,,SKC,0.00,VWS V14.01,2013-01-26 23:11:00,
2013-01-26 18:12:00,149.5,99.9,0.00,SW,217,2.9,3.5,99,0.00,,SKC,0.00,VWS V14.01,2013-01-26 23:12:00,
2013-01-26 18:15:00,149.5,99.9,0.00,SSW,208,3.4,3.7,99,0.00,,SKC,0.00,VWS V14.01,2013-01-26 23:15:00,
2013-01-26 18:16:00,149.5,99.9,0.00,SSW,207,2.5,4.0,99,0.00,,SKC,0.00,VWS V14.01,2013-01-26 23:16:00,
2013-01-26 18:17:00,149.5,99.9,0.00,SSW,207,2.9,2.9,99,0.00,,SKC,0.00,VWS V14.01,2013-01-26 23:17:00,
2013-01-26 18:20:00,149.5,99.9,0.00,SSW,200,2.7,3.6,99,0.00,,SKC,0.00,VWS V14.01,2013-01-26 23:20:00,
2013-01-26 18:21:00,149.5,99.9,0.00,SSW,202,3.0,3.4,99,0.00,,SKC,0.00,VWS V14.01,2013-01-26 23:21:00,
2013-01-26 18:22:00,149.5,99.9,0.00,SSW,204,4.0,4.3,99,0.00,,SKC,0.00,VWS V14.01,2013-01-26 23:22:00,
2013-01-26 18:25:00,149.5,99.9,0.00,SSW,204,2.5,2.8,99,0.00,,SKC,0.00,VWS V14.01,2013-01-26 23:25:00,
2013-01-26 18:26:00,149.5,99.9,0.00,SSW,205,3.7,4.5,99,0.00,,SKC,0.00,VWS V14.01,2013-01-26 23:26:00,
2013-01-26 18:28:00,149.5,99.9,0.00,SW,225,2.9,4.6,99,0.00,,SKC,0.00,VWS V14.01,2013-01-26 23:28:00,
2013-01-26 18:30:00,149.5,99.9,0.00,SW,224,3.5,5.3,99,0.00,,SKC,0.00,VWS V14.01,2013-01-26 23:30:00,
2013-01-26 18:32:00,149.5,99.9,0.00,SW,222,2.4,4.2,99,0.00,,SKC,0.00,VWS V14.01,2013-01-26 23:32:00,
2013-01-26 18:33:00,149.5,99.9,0.00,South,174,0.4,2.9,99,0.00,,SKC,0.00,VWS V14.01,2013-01-26 23:33:00,
2013-01-26 18:35:00,149.5,99.9,0.00,South,174,0.0,0.0,99,0.00,,SKC,0.00,VWS V14.01,2013-01-26 23:35:00,
2013-01-26 18:37:00,149.5,99.9,0.00,SE,146,0.0,0.7,99,0.00,,SKC,0.00,VWS V14.01,2013-01-26 23:37:00,
2013-01-26 18:38:00,149.5,99.9,0.00,SW,221,1.2,3.5,99,0.00,,SKC,0.00,VWS V14.01,2013-01-26 23:38:00,
2013-01-26 18:40:00,149.5,99.9,0.00,West,270,2.2,2.2,99,0.00,,SKC,0.00,VWS V14.01,2013-01-26 23:40:00,
2013-01-26 18:41:00,149.5,99.9,0.00,West,267,1.2,2.4,99,0.00,,SKC,0.00,VWS V14.01,2013-01-26 23:41:00,
2013-01-26 18:42:00,149.5,99.9,0.00,SW,226,1.9,3.4,99,0.00,,SKC,0.00,VWS V14.01,2013-01-26 23:42:00,
2013-01-26 18:43:00,149.5,99.9,0.00,SW,214,2.7,3.9,99,0.00,,SKC,0.00,VWS V14.01,2013-01-26 23:43:00,
2013-01-26 18:45:00,149.5,99.9,0.00,South,186,0.0,0.0,99,0.00,,SKC,0.00,VWS V14.01,2013-01-26 23:45:00,
2013-01-26 18:46:00,149.5,99.9,0.00,South,184,0.0,0.0,99,0.00,,SKC,0.00,VWS V14.01,2013-01-26 23:46:00,
2013-01-26 18:47:00,149.5,99.9,0.00,SW,214,1.9,2.4,99,0.00,,SKC,0.00,VWS V14.01,2013-01-26 23:47:00,
2013-01-26 18:48:00,149.5,99.9,0.00,SSW,211,1.2,2.4,99,0.00,,SKC,0.00,VWS V14.01,2013-01-26 23:48:00,
2013-01-26 18:50:00,149.5,99.9,0.00,SW,214,1.4,1.4,99,0.00,,SKC,0.00,VWS V14.01,2013-01-26 23:50:00,
2013-01-26 18:51:00,149.5,99.9,0.00,SSW,210,1.4,1.7,99,0.00,,SKC,0.00,VWS V14.01,2013-01-26 23:51:00,
2013-01-26 18:53:00,149.5,99.9,0.00,SSW,205,0.0,0.0,99,0.00,,SKC,0.00,VWS V14.01,2013-01-26 23:53:00,
2013-01-26 18:55:00,149.5,99.9,0.00,SSW,205,0.0,0.0,99,0.00,,SKC,0.00,VWS V14.01,2013-01-26 23:55:00,
2013-01-26 18:56:00,149.5,99.9,0.00,SSW,205,0.0,0.0,99,0.00,,SKC,0.00,VWS V14.01,2013-01-26 23:56:00,
2013-01-26 18:58:00,149.5,99.9,0.00,SSW,205,0.0,0.0,99,0.00,,SKC,0.00,VWS V14.01,2013-01-26 23:58:00,
2013-01-26 19:00:00,149.5,99.9,0.00,SSW,205,0.0,0.0,99,0.00,,SKC,0.00,VWS V14.01,2013-01-27 00:00:00,
2013-01-26 19:01:00,149.5,99.9,0.00,SSW,205,1.7,1.7,99,0.00,,SKC,0.00,VWS V14.01,2013-01-27 00:01:00,
2013-01-26 19:03:00,149.5,99.9,0.00,South,181,0.0,1.1,99,0.00,,SKC,0.00,VWS V14.01,2013-01-27 00:03:00,
2013-01-26 19:06:00,149.5,99.9,0.00,South,181,0.0,0.0,99,0.00,,SKC,0.00,VWS V14.01,2013-01-27 00:06:00,
2013-01-26 19:08:00,149.5,99.9,0.00,South,181,0.0,0.0,100,0.00,,SKC,0.00,VWS V14.01,2013-01-27 00:08:00,
2013-01-26 19:11:00,149.5,99.9,0.00,SSW,204,3.6,4.3,100,0.00,,SKC,0.00,VWS V14.01,2013-01-27 00:11:00,
2013-01-26 19:12:00,149.5,99.9,0.00,SSW,200,1.9,4.0,100,0.00,,SKC,0.00,VWS V14.01,2013-01-27 00:12:00,
2013-01-26 19:13:00,149.5,99.9,0.00,SSW,202,3.4,3.4,100,0.00,,SKC,0.00,VWS V14.01,2013-01-27 00:13:00,
2013-01-26 19:16:00,149.5,99.9,0.00,SSW,201,5.9,5.9,100,0.00,,SKC,0.00,VWS V14.01,2013-01-27 00:16:00,
2013-01-26 19:17:00,149.5,99.9,0.00,SW,219,0.0,5.2,100,0.00,,SKC,0.00,VWS V14.01,2013-01-27 00:17:00,
2013-01-26 19:18:00,149.5,99.9,0.00,SW,219,0.0,0.0,100,0.00,,SKC,0.00,VWS V14.01,2013-01-27 00:18:00,
2013-01-26 19:19:00,149.5,99.9,0.00,SW,219,0.0,0.0,100,0.00,,SKC,0.00,VWS V14.01,2013-01-27 00:19:00,
2013-01-26 19:21:00,149.5,99.9,0.00,SSW,211,0.0,0.0,99,0.00,,SKC,0.00,VWS V14.01,2013-01-27 00:21:00,
2013-01-26 19:22:00,149.5,99.9,0.00,SSW,211,0.0,0.0,99,0.00,,SKC,0.00,VWS V14.01,2013-01-27 00:22:00,
2013-01-26 19:23:00,149.5,99.9,0.00,SSW,211,0.0,0.0,99,0.00,,SKC,0.00,VWS V14.01,2013-01-27 00:23:00,
2013-01-26 19:24:00,149.5,99.9,0.00,SSW,211,0.0,0.0,99,0.00,,SKC,0.00,VWS V14.01,2013-01-27 00:24:00,
2013-01-26 19:26:00,149.5,99.9,0.00,SSW,211,0.0,0.0,99,0.00,,SKC,0.00,VWS V14.01,2013-01-27 00:26:00,
2013-01-26 19:27:00,149.5,99.9,0.00,SSW,211,0.0,0.0,99,0.00,,SKC,0.00,VWS V14.01,2013-01-27 00:27:00,
2013-01-26 19:28:00,149.5,99.9,0.00,SSW,211,0.0,0.0,99,0.00,,SKC,0.00,VWS V14.01,2013-01-27 00:28:00,
2013-01-26 19:29:00,149.5,99.9,0.00,SSW,211,0.0,0.0,99,0.00,,SKC,0.00,VWS V14.01,2013-01-27 00:29:00,
2013-01-26 19:31:00,149.5,99.9,0.00,SSW,211,0.0,0.0,99,0.00,,SKC,0.00,VWS V14.01,2013-01-27 00:31:00,
2013-01-26 19:32:00,149.5,99.9,0.00,SSW,211,0.0,0.0,100,0.00,,SKC,0.00,VWS V14.01,2013-01-27 00:32:00,
2013-01-26 19:34:00,149.5,99.9,0.00,SSW,211,0.0,0.0,100,0.00,,SKC,0.00,VWS V14.01,2013-01-27 00:34:00,
2013-01-26 19:36:00,149.5,99.9,0.00,SW,225,1.9,2.5,100,0.00,,SKC,0.00,VWS V14.01,2013-01-27 00:36:00,
2013-01-26 19:37:00,149.5,99.9,0.00,South,190,0.0,0.6,100,0.00,,SKC,0.00,VWS V14.01,2013-01-27 00:37:00,
2013-01-26 19:39:00,149.5,99.9,0.00,South,190,0.0,0.0,100,0.00,,SKC,0.00,VWS V14.01,2013-01-27 00:39:00,
2013-01-26 19:41:00,149.5,99.9,0.00,South,190,0.0,0.0,100,0.00,,SKC,0.00,VWS V14.01,2013-01-27 00:41:00,
2013-01-26 19:42:00,149.5,99.9,0.00,South,190,0.0,0.0,100,0.00,,SKC,0.00,VWS V14.01,2013-01-27 00:42:00,
2013-01-26 19:44:00,149.5,99.9,0.00,South,190,0.0,0.0,100,0.00,,SKC,0.00,VWS V14.01,2013-01-27 00:44:00,
2013-01-26 19:46:00,149.5,99.9,0.00,South,190,0.0,0.0,100,0.00,,SKC,0.00,VWS V14.01,2013-01-27 00:46:00,
2013-01-26 19:47:00,149.5,99.9,0.00,South,190,0.0,0.0,100,0.00,,SKC,0.00,VWS V14.01,2013-01-27 00:47:00,
2013-01-26 19:49:00,149.5,99.9,0.00,South,190,0.0,0.0,100,0.00,,SKC,0.00,VWS V14.01,2013-01-27 00:49:00,
2013-01-26 19:51:00,149.5,99.9,0.00,South,190,0.0,0.0,100,0.00,,SKC,0.00,VWS V14.01,2013-01-27 00:51:00,
2013-01-26 19:52:00,149.5,99.9,0.00,South,190,0.0,0.0,100,0.00,,SKC,0.00,VWS V14.01,2013-01-27 00:52:00,
2013-01-26 19:54:00,149.5,99.9,0.00,South,190,0.0,0.0,100,0.00,,SKC,0.00,VWS V14.01,2013-01-27 00:54:00,
2013-01-26 19:56:00,149.5,99.9,0.00,South,190,0.0,0.0,100,0.00,,SKC,0.00,VWS V14.01,2013-01-27 00:56:00,
2013-01-26 19:57:00,149.5,99.9,0.00,South,190,0.0,0.0,100,0.00,,SKC,0.00,VWS V14.01,2013-01-27 00:57:00,
2013-01-26 19:59:00,149.5,99.9,0.00,South,190,0.0,0.0,100,0.00,,SKC,0.00,VWS V14.01,2013-01-27 00:59:00,
2013-01-26 20:01:00,149.5,99.9,0.00,South,190,0.0,0.0,100,0.00,,SKC,0.00,VWS V14.01,2013-01-27 01:01:00,
2013-01-26 20:03:00,149.5,99.9,0.00,South,190,0.0,0.0,100,0.00,,SKC,0.00,VWS V14.01,2013-01-27 01:03:00,
2013-01-26 20:04:00,149.5,99.9,0.00,South,190,0.0,0.0,100,0.00,,SKC,0.00,VWS V14.01,2013-01-27 01:04:00,
2013-01-26 20:07:00,149.5,99.9,0.00,South,190,0.0,0.0,100,0.00,,SKC,0.00,VWS V14.01,2013-01-27 01:07:00,
2013-01-26 20:08:00,149.5,99.9,0.00,South,190,0.0,0.0,100,0.00,,SKC,0.00,VWS V14.01,2013-01-27 01:08:00,
2013-01-26 20:09:00,149.5,99.9,0.00,South,190,0.0,0.0,100,0.00,,SKC,0.00,VWS V14.01,2013-01-27 01:09:00,
2013-01-26 20:12:00,149.5,99.9,0.00,South,190,0.0,0.0,100,0.00,,SKC,0.00,VWS V14.01,2013-01-27 01:12:00,
2013-01-26 20:13:00,149.5,99.9,0.00,South,190,0.0,0.0,100,0.00,,SKC,0.00,VWS V14.01,2013-01-27 01:13:00,
2013-01-26 20:14:00,149.5,99.9,0.00,South,190,0.0,0.0,100,0.00,,SKC,0.00,VWS V14.01,2013-01-27 01:14:00,
2013-01-26 20:15:00,149.5,99.9,0.00,South,190,0.0,0.0,100,0.00,,SKC,0.00,VWS V14.01,2013-01-27 01:15:00,
2013-01-26 20:17:00,149.5,99.9,0.00,South,190,0.0,0.0,100,0.00,,SKC,0.00,VWS V14.01,2013-01-27 01:17:00,
2013-01-26 20:18:00,149.5,99.9,0.00,South,190,0.0,0.0,100,0.00,,SKC,0.00,VWS V14.01,2013-01-27 01:18:00,
2013-01-26 20:19:00,149.5,99.9,0.00,South,190,0.0,0.0,100,0.00,,SKC,0.00,VWS V14.01,2013-01-27 01:19:00,
2013-01-26 20:20:00,149.5,99.9,0.00,South,190,0.0,0.0,100,0.00,,SKC,0.00,VWS V14.01,2013-01-27 01:20:00,
2013-01-26 20:22:00,149.5,99.9,0.00,South,190,0.0,0.0,100,0.00,,SKC,0.00,VWS V14.01,2013-01-27 01:22:00,
2013-01-26 20:23:00,149.5,99.9,0.00,South,190,0.0,0.0,100,0.00,,SKC,0.00,VWS V14.01,2013-01-27 01:23:00,
2013-01-26 20:24:00,149.5,99.9,0.00,South,190,0.0,0.0,100,0.00,,SKC,0.00,VWS V14.01,2013-01-27 01:24:00,
2013-01-26 20:25:00,149.5,99.9,0.00,South,190,0.0,0.0,100,0.00,,SKC,0.00,VWS V14.01,2013-01-27 01:25:00,
2013-01-26 20:27:00,149.5,99.9,0.00,South,190,0.0,0.0,100,0.00,,SKC,0.00,VWS V14.01,2013-01-27 01:27:00,
2013-01-26 20:28:00,149.5,99.9,0.00,South,190,0.0,0.0,100,0.00,,SKC,0.00,VWS V14.01,2013-01-27 01:28:00,
2013-01-26 20:29:00,149.5,99.9,0.00,South,190,0.0,0.0,100,0.00,,SKC,0.00,VWS V14.01,2013-01-27 01:29:00,
2013-01-26 20:30:00,149.5,99.9,0.00,South,190,0.0,0.0,100,0.00,,SKC,0.00,VWS V14.01,2013-01-27 01:30:00,
2013-01-26 20:32:00,149.5,99.9,0.00,South,190,0.0,0.0,100,0.00,,SKC,0.00,VWS V14.01,2013-01-27 01:32:00,
2013-01-26 20:33:00,149.5,99.9,0.00,South,190,0.0,0.0,100,0.00,,SKC,0.00,VWS V14.01,2013-01-27 01:33:00,
2013-01-26 20:35:00,149.5,99.9,0.00,South,190,0.0,0.0,100,0.00,,SKC,0.00,VWS V14.01,2013-01-27 01:35:00,
2013-01-26 20:36:00,149.5,99.9,0.00,South,190,0.0,0.0,100,0.00,,SKC,0.00,VWS V14.01,2013-01-27 01:36:00,
2013-01-26 20:37:00,149.5,99.9,0.00,South,190,0.0,0.0,100,0.00,,SKC,0.00,VWS V14.01,2013-01-27 01:37:00,
2013-01-26 20:38:00,149.5,99.9,0.00,South,190,0.0,0.0,100,0.00,,SKC,0.00,VWS V14.01,2013-01-27 01:38:00,
2013-01-26 20:40:00,149.5,99.9,0.00,South,190,0.0,0.0,100,0.00,,SKC,0.00,VWS V14.01,2013-01-27 01:40:00,
2013-01-26 20:41:00,149.5,99.9,0.00,South,190,0.0,0.0,100,0.00,,SKC,0.00,VWS V14.01,2013-01-27 01:41:00,
2013-01-26 20:42:00,149.5,99.9,0.00,South,190,0.0,0.0,100,0.00,,SKC,0.00,VWS V14.01,2013-01-27 01:42:00,
2013-01-26 20:43:00,149.5,99.9,0.00,South,190,0.0,0.0,100,0.00,,SKC,0.00,VWS V14.01,2013-01-27 01:43:00,
2013-01-26 20:45:00,149.5,99.9,0.00,South,190,0.0,0.0,100,0.00,,SKC,0.00,VWS V14.01,2013-01-27 01:45:00,
2013-01-26 20:46:00,149.5,99.9,0.00,South,190,0.0,0.0,100,0.00,,SKC,0.00,VWS V14.01,2013-01-27 01:46:00,
2013-01-26 20:47:00,149.5,99.9,0.00,South,190,0.0,0.0,100,0.00,,SKC,0.00,VWS V14.01,2013-01-27 01:47:00,
2013-01-26 20:48:00,149.5,99.9,0.00,SSE,153,4.5,4.5,100,0.00,,SKC,0.00,VWS V14.01,2013-01-27 01:48:00,
2013-01-26 20:50:00,149.5,99.9,0.00,ESE,121,0.0,0.0,100,0.00,,SKC,0.00,VWS V14.01,2013-01-27 01:50:00,
2013-01-26 20:51:00,149.5,99.9,0.00,SSE,160,3.0,3.2,100,0.00,,SKC,0.00,VWS V14.01,2013-01-27 01:51:00,
2013-01-26 20:52:00,149.5,99.9,0.00,SSE,152,1.9,2.1,100,0.00,,SKC,0.00,VWS V14.01,2013-01-27 01:52:00,
2013-01-26 20:54:00,149.5,99.9,0.00,ESE,118,0.0,0.0,100,0.00,,SKC,0.00,VWS V14.01,2013-01-27 01:54:00,
2013-01-26 20:55:00,149.5,99.9,0.00,SE,129,0.0,0.0,100,0.00,,SKC,0.00,VWS V14.01,2013-01-27 01:55:00,
2013-01-26 20:56:00,149.5,99.9,0.00,South,179,1.4,2.2,100,0.00,,SKC,0.00,VWS V14.01,2013-01-27 01:56:00,
2013-01-26 20:57:00,149.5,99.9,0.00,SSE,159,1.6,3.9,100,0.00,,SKC,0.00,VWS V14.01,2013-01-27 01:57:00,
2013-01-26 20:59:00,149.5,99.9,0.00,SSE,158,1.9,4.3,100,0.00,,SKC,0.00,VWS V14.01,2013-01-27 01:59:00,
2013-01-26 21:01:00,149.5,99.9,0.00,SSE,159,0.8,2.5,100,0.00,,SKC,0.00,VWS V14.01,2013-01-27 02:01:00,
2013-01-26 21:02:00,149.5,99.9,0.00,SSE,160,2.8,4.3,100,0.00,,SKC,0.00,VWS V14.01,2013-01-27 02:02:00,
2013-01-26 21:04:00,149.5,99.9,0.00,SSE,159,3.4,3.4,100,0.00,,SKC,0.00,VWS V14.01,2013-01-27 02:04:00,
2013-01-26 21:06:00,149.5,99.9,0.00,SSE,165,0.0,0.0,100,0.00,,SKC,0.00,VWS V14.01,2013-01-27 02:06:00,
2013-01-26 21:08:00,149.5,99.9,0.00,SE,146,2.9,4.2,100,0.00,,SKC,0.00,VWS V14.01,2013-01-27 02:08:00,
2013-01-26 21:09:00,149.5,99.9,0.00,SSE,152,1.6,2.5,100,0.00,,SKC,0.00,VWS V14.01,2013-01-27 02:09:00,
2013-01-26 21:11:00,149.5,99.9,0.00,SSE,156,2.7,2.7,100,0.00,,SKC,0.00,VWS V14.01,2013-01-27 02:11:00,
2013-01-26 21:13:00,149.5,99.9,0.00,SSE,163,2.8,4.2,100,0.00,,SKC,0.00,VWS V14.01,2013-01-27 02:13:00,
2013-01-26 21:14:00,149.5,99.9,0.00,SSE,152,1.0,2.5,100,0.00,,SKC,0.00,VWS V14.01,2013-01-27 02:14:00,
2013-01-26 21:16:00,149.5,99.9,0.00,SSE,148,0.0,0.0,100,0.00,,SKC,0.00,VWS V14.01,2013-01-27 02:16:00,
2013-01-26 21:18:00,149.5,99.9,0.00,SSE,148,0.0,0.0,100,0.00,,SKC,0.00,VWS V14.01,2013-01-27 02:18:00,
2013-01-26 21:19:00,149.5,99.9,0.00,SSE,148,0.0,0.0,100,0.00,,SKC,0.00,VWS V14.01,2013-01-27 02:19:00,
2013-01-26 21:21:00,149.5,99.9,0.00,SSE,148,0.0,0.0,100,0.00,,SKC,0.00,VWS V14.01,2013-01-27 02:21:00,
2013-01-26 21:23:00,149.5,99.9,0.00,SSE,148,0.0,0.0,100,0.00,,SKC,0.00,VWS V14.01,2013-01-27 02:23:00,
2013-01-26 21:24:00,149.5,99.9,0.00,SSE,148,0.0,0.0,100,0.00,,SKC,0.00,VWS V14.01,2013-01-27 02:24:00,
2013-01-26 21:26:00,149.5,99.9,0.00,SSE,162,5.0,5.2,100,0.00,,SKC,0.00,VWS V14.01,2013-01-27 02:26:00,
2013-01-26 21:28:00,149.5,99.9,0.00,SSE,156,3.1,4.3,100,0.00,,SKC,0.00,VWS V14.01,2013-01-27 02:28:00,
2013-01-26 21:29:00,149.5,99.9,0.00,SE,143,0.0,3.9,100,0.00,,SKC,0.00,VWS V14.01,2013-01-27 02:29:00,
2013-01-26 21:31:00,149.5,99.9,0.00,SSE,162,1.6,3.1,100,0.00,,SKC,0.00,VWS V14.01,2013-01-27 02:31:00,
2013-01-26 21:34:00,149.5,99.9,0.00,SSE,150,0.0,0.0,100,0.00,,SKC,0.00,VWS V14.01,2013-01-27 02:34:00,
2013-01-26 21:36:00,149.5,99.9,0.00,SSE,162,2.9,2.9,100,0.00,,SKC,0.00,VWS V14.01,2013-01-27 02:36:00,
2013-01-26 21:37:00,149.5,99.9,0.00,SSE,162,0.0,3.0,100,0.00,,SKC,0.00,VWS V14.01,2013-01-27 02:37:00,
2013-01-26 21:39:00,149.5,99.9,0.00,SSE,162,0.0,0.0,100,0.00,,SKC,0.00,VWS V14.01,2013-01-27 02:39:00,
2013-01-26 21:41:00,149.5,99.9,0.00,SSE,162,0.0,0.0,100,0.00,,SKC,0.00,VWS V14.01,2013-01-27 02:41:00,
2013-01-26 21:42:00,149.5,99.9,0.00,SSE,162,0.0,0.0,100,0.00,,SKC,0.00,VWS V14.01,2013-01-27 02:42:00,
2013-01-26 21:44:00,149.5,99.9,0.00,SSE,162,0.0,0.0,100,0.00,,SKC,0.00,VWS V14.01,2013-01-27 02:44:00,
2013-01-26 21:46:00,149.5,99.9,0.00,SSE,162,0.0,0.0,100,0.00,,SKC,0.00,VWS V14.01,2013-01-27 02:46:00,
2013-01-26 21:47:00,149.5,99.9,0.00,SSE,162,0.0,0.0,100,0.00,,SKC,0.00,VWS V14.01,2013-01-27 02:47:00,
2013-01-26 21:49:00,149.5,99.9,0.00,SSE,162,0.0,0.0,100,0.00,,SKC,0.00,VWS V14.01,2013-01-27 02:49:00,
2013-01-26 21:51:00,149.5,99.9,0.00,SSE,162,0.0,0.0,100,0.00,,SKC,0.00,VWS V14.01,2013-01-27 02:51:00,
2013-01-26 21:52:00,149.5,99.9,0.00,SSE,162,0.0,0.0,100,0.00,,SKC,0.00,VWS V14.01,2013-01-27 02:52:00,
2013-01-26 21:54:00,149.5,99.9,0.00,SSE,162,0.0,0.0,100,0.00,,SKC,0.00,VWS V14.01,2013-01-27 02:54:00,
2013-01-26 21:56:00,149.5,99.9,0.00,SSE,162,0.0,0.0,100,0.00,,SKC,0.00,VWS V14.01,2013-01-27 02:56:00,
2013-01-26 21:57:00,149.5,99.9,0.00,SSE,162,0.0,0.0,100,0.00,,SKC,0.00,VWS V14.01,2013-01-27 02:57:00,
2013-01-26 21:59:00,149.5,99.9,0.00,SSE,162,0.0,0.0,100,0.00,,SKC,0.00,VWS V14.01,2013-01-27 02:59:00,
2013-01-26 22:01:00,149.5,99.9,0.00,SSE,162,0.0,0.0,100,0.00,,SKC,0.00,VWS V14.01,2013-01-27 03:01:00,
2013-01-26 22:02:00,149.5,99.9,0.00,SSE,162,0.0,0.0,100,0.00,,SKC,0.00,VWS V14.01,2013-01-27 03:02:00,
2013-01-26 22:04:00,149.5,99.9,0.00,SSE,162,0.0,0.0,100,0.00,,SKC,0.00,VWS V14.01,2013-01-27 03:04:00,
2013-01-26 22:06:00,149.5,99.9,0.00,SSE,162,0.0,0.0,100,0.00,,SKC,0.00,VWS V14.01,2013-01-27 03:06:00,
2013-01-26 22:07:00,149.5,99.9,0.00,SSE,162,0.0,0.0,100,0.00,,SKC,0.00,VWS V14.01,2013-01-27 03:07:00,
2013-01-26 22:09:00,149.5,99.9,0.00,SSE,162,0.0,0.0,100,0.00,,SKC,0.00,VWS V14.01,2013-01-27 03:09:00,
2013-01-26 22:11:00,149.5,99.9,0.00,SSE,162,0.0,0.0,100,0.00,,SKC,0.00,VWS V14.01,2013-01-27 03:11:00,
2013-01-26 22:13:00,149.5,99.9,0.00,SSE,162,0.0,0.0,100,0.00,,SKC,0.00,VWS V14.01,2013-01-27 03:13:00,
2013-01-26 22:14:00,149.5,99.9,0.00,SSE,162,0.0,0.0,100,0.00,,SKC,0.00,VWS V14.01,2013-01-27 03:14:00,
2013-01-26 22:16:00,149.5,99.9,0.00,SSE,162,0.0,0.0,100,0.00,,SKC,0.00,VWS V14.01,2013-01-27 03:16:00,
2013-01-26 22:18:00,149.5,99.9,0.00,SSE,162,0.0,0.9,100,0.00,,SKC,0.00,VWS V14.01,2013-01-27 03:18:00,
2013-01-26 22:19:00,149.5,99.9,0.00,SSE,162,0.0,0.0,100,0.00,,SKC,0.00,VWS V14.01,2013-01-27 03:19:00,
2013-01-26 22:20:00,149.5,99.9,0.00,SSE,162,0.0,0.0,100,0.00,,SKC,0.00,VWS V14.01,2013-01-27 03:20:00,
2013-01-26 22:21:00,149.5,99.9,0.00,SSE,162,0.0,0.0,100,0.00,,SKC,0.00,VWS V14.01,2013-01-27 03:21:00,
2013-01-26 22:23:00,149.5,99.9,0.00,SSE,162,0.0,0.0,100,0.00,,SKC,0.00,VWS V14.01,2013-01-27 03:23:00,
2013-01-26 22:24:00,149.5,99.9,0.00,SSE,162,0.0,0.0,100,0.00,,SKC,0.00,VWS V14.01,2013-01-27 03:24:00,
2013-01-26 22:25:00,149.5,99.9,0.00,SSE,162,0.0,0.0,100,0.00,,SKC,0.00,VWS V14.01,2013-01-27 03:25:00,
2013-01-26 22:26:00,149.5,99.9,0.00,SSE,162,0.0,0.0,100,0.00,,SKC,0.00,VWS V14.01,2013-01-27 03:26:00,
2013-01-26 22:28:00,149.5,99.9,0.00,SSE,162,0.0,0.0,100,0.00,,SKC,0.00,VWS V14.01,2013-01-27 03:28:00,
2013-01-26 22:29:00,149.5,99.9,0.00,SSE,162,0.0,0.0,100,0.00,,SKC,0.00,VWS V14.01,2013-01-27 03:29:00,
2013-01-26 22:30:00,149.5,99.9,0.00,SSE,162,0.0,0.0,100,0.00,,SKC,0.00,VWS V14.01,2013-01-27 03:30:00,
2013-01-26 22:31:00,149.5,99.9,0.00,SSE,162,0.0,0.0,100,0.00,,SKC,0.00,VWS V14.01,2013-01-27 03:31:00,
2013-01-26 22:33:00,149.5,99.9,0.00,SSE,162,0.0,0.0,100,0.00,,SKC,0.00,VWS V14.01,2013-01-27 03:33:00,
2013-01-26 22:34:00,149.5,99.9,0.00,SSE,162,0.0,0.0,100,0.00,,SKC,0.00,VWS V14.01,2013-01-27 03:34:00,
2013-01-26 22:35:00,149.5,99.9,0.00,SSE,162,0.0,0.0,100,0.00,,SKC,0.00,VWS V14.01,2013-01-27 03:35:00,
2013-01-26 22:36:00,149.5,99.9,0.00,SSE,162,0.0,0.0,100,0.00,,SKC,0.00,VWS V14.01,2013-01-27 03:36:00,
2013-01-26 22:38:00,149.5,99.9,0.00,SSE,162,0.0,0.0,100,0.00,,SKC,0.00,VWS V14.01,2013-01-27 03:38:00,
2013-01-26 22:40:00,149.5,99.9,0.00,SSE,162,0.0,0.0,100,0.00,,SKC,0.00,VWS V14.01,2013-01-27 03:40:00,
2013-01-26 22:42:00,149.5,99.9,0.00,SSE,162,0.0,0.0,100,0.00,,SKC,0.00,VWS V14.01,2013-01-27 03:42:00,
2013-01-26 22:43:00,149.5,99.9,0.00,SSE,162,0.0,0.0,100,0.00,,SKC,0.00,VWS V14.01,2013-01-27 03:43:00,
2013-01-26 22:45:00,149.5,99.9,0.00,SSE,162,0.0,0.0,100,0.00,,SKC,0.00,VWS V14.01,2013-01-27 03:45:00,
2013-01-26 22:47:00,149.5,99.9,0.00,SSE,162,0.0,0.0,100,0.00,,SKC,0.00,VWS V14.01,2013-01-27 03:47:00,
2013-01-26 22:48:00,149.5,99.9,0.00,SSE,158,0.0,0.7,100,0.00,,SKC,0.00,VWS V14.01,2013-01-27 03:48:00,
2013-01-26 22:50:00,149.5,99.9,0.00,SE,129,0.0,3.5,100,0.00,,SKC,0.00,VWS V14.01,2013-01-27 03:50:00,
2013-01-26 22:52:00,149.5,99.9,0.00,SE,129,0.0,0.0,100,0.00,,SKC,0.00,VWS V14.01,2013-01-27 03:52:00,
2013-01-26 22:53:00,149.5,99.9,0.00,SSE,156,2.4,2.9,100,0.00,,SKC,0.00,VWS V14.01,2013-01-27 03:53:00,
2013-01-26 22:55:00,149.5,99.9,0.00,SE,142,0.0,2.2,100,0.00,,SKC,0.00,VWS V14.01,2013-01-27 03:55:00,
2013-01-26 22:57:00,149.5,99.9,0.00,SE,138,1.4,1.4,100,0.00,,SKC,0.00,VWS V14.01,2013-01-27 03:57:00,
2013-01-26 22:59:00,149.5,99.9,0.00,SSE,159,1.5,2.4,100,0.00,,SKC,0.00,VWS V14.01,2013-01-27 03:59:00,
2013-01-26 23:00:00,149.5,99.9,0.00,SSE,163,2.4,4.4,100,0.00,,SKC,0.00,VWS V14.01,2013-01-27 04:00:00,
2013-01-26 23:02:00,149.5,99.9,0.00,SSE,160,1.6,1.9,100,0.00,,SKC,0.00,VWS V14.01,2013-01-27 04:02:00,
2013-01-26 23:04:00,149.5,99.9,0.00,SSE,152,0.5,2.7,100,0.00,,SKC,0.00,VWS V14.01,2013-01-27 04:04:00,
2013-01-26 23:05:00,149.5,99.9,0.00,SSE,152,0.0,0.0,100,0.00,,SKC,0.00,VWS V14.01,2013-01-27 04:05:00,
2013-01-26 23:07:00,149.5,99.9,0.00,SSE,148,1.4,1.5,100,0.00,,SKC,0.00,VWS V14.01,2013-01-27 04:07:00,
2013-01-26 23:09:00,149.5,99.9,0.00,SE,134,0.0,0.0,100,0.00,,SKC,0.00,VWS V14.01,2013-01-27 04:09:00,
2013-01-26 23:10:00,149.5,99.9,0.00,SE,134,0.0,0.0,100,0.00,,SKC,0.00,VWS V14.01,2013-01-27 04:10:00,
2013-01-26 23:13:00,149.5,99.9,0.00,ESE,117,0.0,0.0,100,0.00,,SKC,0.00,VWS V14.01,2013-01-27 04:13:00,
2013-01-26 23:14:00,149.5,99.9,0.00,ESE,117,0.0,0.0,100,0.00,,SKC,0.00,VWS V14.01,2013-01-27 04:14:00,
2013-01-26 23:15:00,149.5,99.9,0.00,ESE,117,0.0,0.0,100,0.00,,SKC,0.00,VWS V14.01,2013-01-27 04:15:00,
2013-01-26 23:18:00,149.5,99.9,0.00,ESE,117,0.0,0.0,100,0.00,,SKC,0.00,VWS V14.01,2013-01-27 04:18:00,
2013-01-26 23:19:00,149.5,99.9,0.00,ESE,117,0.0,0.0,100,0.00,,SKC,0.00,VWS V14.01,2013-01-27 04:19:00,
2013-01-26 23:20:00,149.5,99.9,0.00,SSE,167,1.1,1.9,100,0.00,,SKC,0.00,VWS V14.01,2013-01-27 04:20:00,
2013-01-26 23:23:00,149.5,99.9,0.00,SSE,150,0.0,0.0,100,0.00,,SKC,0.00,VWS V14.01,2013-01-27 04:23:00,
2013-01-26 23:24:00,149.5,99.9,0.00,SSE,150,0.0,0.0,100,0.00,,SKC,0.00,VWS V14.01,2013-01-27 04:24:00,
2013-01-26 23:25:00,149.5,99.9,0.00,South,176,2.1,2.1,100,0.00,,SKC,0.00,VWS V14.01,2013-01-27 04:25:00,
2013-01-26 23:28:00,149.5,99.9,0.00,SE,145,0.0,0.0,100,0.00,,SKC,0.00,VWS V14.01,2013-01-27 04:28:00,
2013-01-26 23:29:00,149.5,99.9,0.00,SE,143,0.9,4.0,100,0.00,,SKC,0.00,VWS V14.01,2013-01-27 04:29:00,
2013-01-26 23:31:00,149.5,99.9,0.00,SE,136,0.8,3.0,100,0.00,,SKC,0.00,VWS V14.01,2013-01-27 04:31:00,
2013-01-26 23:33:00,149.5,99.9,0.00,SE,146,0.0,0.0,100,0.00,,SKC,0.00,VWS V14.01,2013-01-27 04:33:00,
2013-01-26 23:34:00,149.5,99.9,0.00,SE,146,0.0,0.0,100,0.00,,SKC,0.00,VWS V14.01,2013-01-27 04:34:00,
2013-01-26 23:36:00,149.5,99.9,0.00,SE,146,0.0,0.0,100,0.00,,SKC,0.00,VWS V14.01,2013-01-27 04:36:00,
2013-01-26 23:38:00,149.5,99.9,0.00,SE,146,0.0,0.0,100,0.00,,SKC,0.00,VWS V14.01,2013-01-27 04:38:00,
2013-01-26 23:39:00,149.5,99.9,0.00,SE,146,0.0,0.0,100,0.00,,SKC,0.00,VWS V14.01,2013-01-27 04:39:00,
2013-01-26 23:41:00,149.5,99.9,0.00,SSE,159,2.9,2.9,100,0.00,,SKC,0.00,VWS V14.01,2013-01-27 04:41:00,
2013-01-26 23:43:00,149.5,99.9,0.00,SE,138,0.0,0.0,100,0.00,,SKC,0.00,VWS V14.01,2013-01-27 04:43:00,
2013-01-26 23:44:00,149.5,99.9,0.00,SE,138,0.0,0.0,100,0.00,,SKC,0.00,VWS V14.01,2013-01-27 04:44:00,
2013-01-26 23:46:00,149.5,99.9,0.00,SE,138,0.0,0.0,100,0.00,,SKC,0.00,VWS V14.01,2013-01-27 04:46:00,
2013-01-26 23:48:00,149.5,99.9,0.00,SE,138,0.0,0.0,100,0.00,,SKC,0.00,VWS V14.01,2013-01-27 04:48:00,
2013-01-26 23:50:00,149.5,99.9,0.00,SE,138,0.0,0.0,100,0.00,,SKC,0.00,VWS V14.01,2013-01-27 04:50:00,
2013-01-26 23:51:00,149.5,99.9,0.00,SE,138,0.0,0.0,100,0.00,,SKC,0.00,VWS V14.01,2013-01-27 04:51:00,
2013-01-26 23:53:00,149.5,99.9,0.00,SE,138,0.0,0.0,100,0.00,,SKC,0.00,VWS V14.01,2013-01-27 04:53:00,
2013-01-26 23:55:00,149.5,99.9,0.00,SE,138,0.0,0.0,100,0.00,,SKC,0.00,VWS V14.01,2013-01-27 04:55:00,
2013-01-26 23:56:00,149.5,99.9,0.00,SE,138,0.0,0.0,100,0.00,,SKC,0.00,VWS V14.01,2013-01-27 04:56:00,
2013-01-26 23:58:00,149.5,99.9,0.00,SE,138,0.0,0.0,100,0.00,,SKC,0.00,VWS V14.01,2013-01-27 04:58:00,